Wetterdaten: Sonntag, 20.07.2014
Datum Zeit Temp. Aussen +5cm Feuchte Auss Luftdruck Regen Sonnenschein Regendauer UV Solar Windben
20.07.2014 00:00 25,2 C 22,2 C 69 % 1008,1 hPa 0,0 l/m 0 min 0 min 0,0 UV-I 0 W/m 8,4 km/h (2 Bft)
20.07.2014 00:02 25,2 C 22,2 C 69 % 1008,1 hPa 0,0 l/m 0 min 0 min 0,0 UV-I 0 W/m 8,4 km/h (2 Bft)
20.07.2014 00:05 25,2 C 22,2 C 69 % 1008,2 hPa 0,0 l/m 0 min 0 min 0,0 UV-I 0 W/m 8,4 km/h (2 Bft)
20.07.2014 00:06 25,2 C 22,2 C 69 % 1008,2 hPa 0,0 l/m 0 min 0 min 0,0 UV-I 0 W/m 8,4 km/h (2 Bft)
20.07.2014 00:08 25,2 C 22,2 C 69 % 1008,2 hPa 0,0 l/m 0 min 0 min 0,0 UV-I 0 W/m 8,4 km/h (2 Bft)
20.07.2014 00:10 25,2 C 22,2 C 69 % 1008,2 hPa 0,0 l/m 0 min 0 min 0,0 UV-I 0 W/m 8,4 km/h (2 Bft)
20.07.2014 00:12 25,2 C 22,2 C 69 % 1008,2 hPa 0,0 l/m 0 min 0 min 0,0 UV-I 0 W/m 6,3 km/h (2 Bft)
20.07.2014 00:14 25,2 C 22,2 C 69 % 1008,1 hPa 0,0 l/m 0 min 0 min 0,0 UV-I 0 W/m 4,2 km/h (1 Bft)
20.07.2014 00:16 25,2 C 22,2 C 69 % 1008,1 hPa 0,0 l/m 0 min 0 min 0,0 UV-I 0 W/m 10,5 km/h (2 Bft)
20.07.2014 00:18 25,2 C 22,2 C 70 % 1008,2 hPa 0,0 l/m 0 min 0 min 0,0 UV-I 0 W/m 10,5 km/h (2 Bft)
20.07.2014 00:20 25,1 C 22,2 C 70 % 1008,1 hPa 0,0 l/m 0 min 0 min 0,0 UV-I 0 W/m 10,5 km/h (2 Bft)
20.07.2014 00:22 25,1 C 22,2 C 70 % 1008,2 hPa 0,0 l/m 0 min 0 min 0,0 UV-I 0 W/m 2,1 km/h (1 Bft)
20.07.2014 00:24 25,1 C 22,2 C 70 % 1008,2 hPa 0,0 l/m 0 min 0 min 0,0 UV-I 0 W/m 8,4 km/h (2 Bft)
20.07.2014 00:26 25,0 C 22,2 C 70 % 1008,2 hPa 0,0 l/m 0 min 0 min 0,0 UV-I 0 W/m 6,3 km/h (2 Bft)
20.07.2014 00:28 24,9 C 22,2 C 71 % 1008,2 hPa 0,0 l/m 0 min 0 min 0,0 UV-I 0 W/m 0,0 km/h (0 Bft)
20.07.2014 00:30 24,9 C 22,2 C 71 % 1008,2 hPa 0,0 l/m 0 min 0 min 0,0 UV-I 0 W/m 2,1 km/h (1 Bft)
20.07.2014 00:32 24,9 C 22,2 C 71 % 1008,2 hPa 0,0 l/m 0 min 0 min 0,0 UV-I 0 W/m 4,2 km/h (1 Bft)
20.07.2014 00:34 24,9 C 22,2 C 71 % 1008,2 hPa 0,0 l/m 0 min 0 min 0,0 UV-I 0 W/m 4,2 km/h (1 Bft)
20.07.2014 00:36 24,8 C 22,2 C 71 % 1008,1 hPa 0,0 l/m 0 min 0 min 0,0 UV-I 0 W/m 6,3 km/h (2 Bft)
20.07.2014 00:38 24,8 C 22,2 C 71 % 1008,1 hPa 0,0 l/m 0 min 0 min 0,0 UV-I 0 W/m 6,3 km/h (2 Bft)
20.07.2014 00:40 24,8 C 22,2 C 71 % 1008,1 hPa 0,0 l/m 0 min 0 min 0,0 UV-I 0 W/m 0,0 km/h (0 Bft)
20.07.2014 00:42 24,8 C 22,2 C 71 % 1008,1 hPa 0,0 l/m 0 min 0 min 0,0 UV-I 0 W/m 0,0 km/h (0 Bft)
20.07.2014 00:44 24,7 C 21,7 C 71 % 1008,1 hPa 0,0 l/m 0 min 0 min 0,0 UV-I 0 W/m 2,1 km/h (1 Bft)
20.07.2014 00:46 24,7 C 21,7 C 72 % 1008,1 hPa 0,0 l/m 0 min 0 min 0,0 UV-I 0 W/m 0,0 km/h (0 Bft)
20.07.2014 00:48 24,7 C 21,7 C 72 % 1008,0 hPa 0,0 l/m 0 min 0 min 0,0 UV-I 0 W/m 0,0 km/h (0 Bft)
20.07.2014 00:50 24,6 C 21,7 C 72 % 1008,1 hPa 0,0 l/m 0 min 0 min 0,0 UV-I 0 W/m 2,1 km/h (1 Bft)
20.07.2014 00:52 24,5 C 21,7 C 73 % 1008,1 hPa 0,0 l/m 0 min 0 min 0,0 UV-I 0 W/m 0,0 km/h (0 Bft)
20.07.2014 00:54 24,4 C 21,7 C 73 % 1008,0 hPa 0,0 l/m 0 min 0 min 0,0 UV-I 0 W/m 2,1 km/h (1 Bft)
20.07.2014 00:56 24,3 C 21,7 C 73 % 1008,0 hPa 0,0 l/m 0 min 0 min 0,0 UV-I 0 W/m 6,3 km/h (2 Bft)
20.07.2014 00:58 24,2 C 21,7 C 73 % 1008,1 hPa 0,0 l/m 0 min 0 min 0,0 UV-I 0 W/m 8,4 km/h (2 Bft)
20.07.2014 01:00 24,2 C 21,7 C 73 % 1008,0 hPa 0,0 l/m 0 min 0 min 0,0 UV-I 0 W/m 8,4 km/h (2 Bft)
20.07.2014 01:02 24,1 C 21,7 C 73 % 1008,0 hPa 0,0 l/m 0 min 0 min 0,0 UV-I 0 W/m 8,4 km/h (2 Bft)
20.07.2014 01:04 24,2 C 21,7 C 73 % 1008,0 hPa 0,0 l/m 0 min 0 min 0,0 UV-I 0 W/m 4,2 km/h (1 Bft)
20.07.2014 01:06 24,2 C 21,7 C 73 % 1007,9 hPa 0,0 l/m 0 min 0 min 0,0 UV-I 0 W/m 2,1 km/h (1 Bft)
20.07.2014 01:08 24,2 C 21,7 C 73 % 1008,0 hPa 0,0 l/m 0 min 0 min 0,0 UV-I 0 W/m 8,4 km/h (2 Bft)
20.07.2014 01:10 24,2 C 21,7 C 73 % 1008,0 hPa 0,0 l/m 0 min 0 min 0,0 UV-I 0 W/m 6,3 km/h (2 Bft)
20.07.2014 01:12 24,2 C 21,7 C 73 % 1007,9 hPa 0,0 l/m 0 min 0 min 0,0 UV-I 0 W/m 8,4 km/h (2 Bft)
20.07.2014 01:14 24,2 C 21,7 C 73 % 1007,9 hPa 0,0 l/m 0 min 0 min 0,0 UV-I 0 W/m 0,0 km/h (0 Bft)
20.07.2014 01:16 24,2 C 21,7 C 73 % 1007,9 hPa 0,0 l/m 0 min 0 min 0,0 UV-I 0 W/m 2,1 km/h (1 Bft)
20.07.2014 01:18 24,2 C 21,7 C 73 % 1007,9 hPa 0,0 l/m 0 min 0 min 0,0 UV-I 0 W/m 2,1 km/h (1 Bft)
20.07.2014 01:20 24,2 C 21,7 C 73 % 1007,9 hPa 0,0 l/m 0 min 0 min 0,0 UV-I 0 W/m 2,1 km/h (1 Bft)
20.07.2014 01:22 24,1 C 21,7 C 73 % 1007,8 hPa 0,0 l/m 0 min 0 min 0,0 UV-I 0 W/m 0,0 km/h (0 Bft)
20.07.2014 01:24 24,1 C 21,7 C 74 % 1007,8 hPa 0,0 l/m 0 min 0 min 0,0 UV-I 0 W/m 2,1 km/h (1 Bft)
20.07.2014 01:26 24,0 C 21,7 C 74 % 1007,8 hPa 0,0 l/m 0 min 0 min 0,0 UV-I 0 W/m 0,0 km/h (0 Bft)
20.07.2014 01:28 24,0 C 21,7 C 74 % 1007,8 hPa 0,0 l/m 0 min 0 min 0,0 UV-I 0 W/m 8,4 km/h (2 Bft)
20.07.2014 01:30 23,9 C 21,7 C 74 % 1007,9 hPa 0,0 l/m 0 min 0 min 0,0 UV-I 0 W/m 8,4 km/h (2 Bft)
20.07.2014 01:32 23,9 C 21,7 C 75 % 1007,9 hPa 0,0 l/m 0 min 0 min 0,0 UV-I 0 W/m 4,2 km/h (1 Bft)
20.07.2014 01:34 23,8 C 21,7 C 75 % 1007,9 hPa 0,0 l/m 0 min 0 min 0,0 UV-I 0 W/m 0,0 km/h (0 Bft)
20.07.2014 01:36 23,8 C 21,1 C 75 % 1007,9 hPa 0,0 l/m 0 min 0 min 0,0 UV-I 0 W/m 0,0 km/h (0 Bft)
20.07.2014 01:38 23,8 C 21,1 C 75 % 1007,9 hPa 0,0 l/m 0 min 0 min 0,0 UV-I 0 W/m 2,1 km/h (1 Bft)
20.07.2014 01:40 23,8 C 21,1 C 75 % 1008,0 hPa 0,0 l/m 0 min 0 min 0,0 UV-I 0 W/m 2,1 km/h (1 Bft)
20.07.2014 01:42 23,8 C 21,1 C 75 % 1008,1 hPa 0,0 l/m 0 min 0 min 0,0 UV-I 0 W/m 8,4 km/h (2 Bft)
20.07.2014 01:44 23,7 C 21,1 C 76 % 1008,0 hPa 0,0 l/m 0 min 0 min 0,0 UV-I 0 W/m 6,3 km/h (2 Bft)
20.07.2014 01:46 23,7 C 21,1 C 77 % 1008,0 hPa 0,0 l/m 0 min 0 min 0,0 UV-I 0 W/m 8,4 km/h (2 Bft)
20.07.2014 01:48 23,6 C 21,1 C 77 % 1008,0 hPa 0,0 l/m 0 min 0 min 0,0 UV-I 0 W/m 0,0 km/h (0 Bft)
20.07.2014 01:50 23,5 C 21,1 C 77 % 1008,0 hPa 0,0 l/m 0 min 0 min 0,0 UV-I 0 W/m 0,0 km/h (0 Bft)
20.07.2014 01:52 23,4 C 21,1 C 77 % 1008,0 hPa 0,0 l/m 0 min 0 min 0,0 UV-I 0 W/m 0,0 km/h (0 Bft)
20.07.2014 01:54 23,4 C 21,1 C 77 % 1008,0 hPa 0,0 l/m 0 min 0 min 0,0 UV-I 0 W/m 0,0 km/h (0 Bft)
20.07.2014 01:56 23,4 C 21,1 C 77 % 1008,0 hPa 0,0 l/m 0 min 0 min 0,0 UV-I 0 W/m 0,0 km/h (0 Bft)
20.07.2014 01:58 23,4 C 21,1 C 77 % 1008,0 hPa 0,0 l/m 0 min 0 min 0,0 UV-I 0 W/m 0,0 km/h (0 Bft)
20.07.2014 02:00 23,5 C 21,1 C 77 % 1008,0 hPa 0,0 l/m 0 min 0 min 0,0 UV-I 0 W/m 0,0 km/h (0 Bft)
20.07.2014 02:02 23,4 C 21,1 C 77 % 1008,0 hPa 0,0 l/m 0 min 0 min 0,0 UV-I 0 W/m 0,0 km/h (0 Bft)
20.07.2014 02:04 23,5 C 21,1 C 77 % 1008,0 hPa 0,0 l/m 0 min 0 min 0,0 UV-I 0 W/m 0,0 km/h (0 Bft)
20.07.2014 02:06 23,4 C 21,1 C 77 % 1008,0 hPa 0,0 l/m 0 min 0 min 0,0 UV-I 0 W/m 0,0 km/h (0 Bft)
20.07.2014 02:08 23,4 C 21,1 C 77 % 1008,0 hPa 0,0 l/m 0 min 0 min 0,0 UV-I 0 W/m 0,0 km/h (0 Bft)
20.07.2014 02:10 23,4 C 21,1 C 77 % 1008,0 hPa 0,0 l/m 0 min 0 min 0,0 UV-I 0 W/m 0,0 km/h (0 Bft)
20.07.2014 02:12 23,4 C 21,1 C 77 % 1007,9 hPa 0,0 l/m 0 min 0 min 0,0 UV-I 0 W/m 0,0 km/h (0 Bft)
20.07.2014 02:14 23,4 C 21,1 C 77 % 1007,8 hPa 0,0 l/m 0 min 0 min 0,0 UV-I 0 W/m 0,0 km/h (0 Bft)
20.07.2014 02:16 23,3 C 21,1 C 77 % 1007,9 hPa 0,0 l/m 0 min 0 min 0,0 UV-I 0 W/m 0,0 km/h (0 Bft)
20.07.2014 02:18 23,3 C 20,6 C 78 % 1008,0 hPa 0,0 l/m 0 min 0 min 0,0 UV-I 0 W/m 0,0 km/h (0 Bft)
20.07.2014 02:20 23,3 C 20,6 C 78 % 1008,0 hPa 0,0 l/m 0 min 0 min 0,0 UV-I 0 W/m 0,0 km/h (0 Bft)
20.07.2014 02:22 23,3 C 20,6 C 79 % 1008,0 hPa 0,0 l/m 0 min 0 min 0,0 UV-I 0 W/m 0,0 km/h (0 Bft)
20.07.2014 02:24 23,2 C 20,6 C 79 % 1008,0 hPa 0,0 l/m 0 min 0 min 0,0 UV-I 0 W/m 0,0 km/h (0 Bft)
20.07.2014 02:26 23,2 C 20,6 C 79 % 1008,0 hPa 0,0 l/m 0 min 0 min 0,0 UV-I 0 W/m 0,0 km/h (0 Bft)
20.07.2014 02:28 23,1 C 20,6 C 79 % 1008,0 hPa 0,0 l/m 0 min 0 min 0,0 UV-I 0 W/m 0,0 km/h (0 Bft)
20.07.2014 02:30 23,1 C 20,6 C 79 % 1007,9 hPa 0,0 l/m 0 min 0 min 0,0 UV-I 0 W/m 0,0 km/h (0 Bft)
20.07.2014 02:32 23,1 C 20,6 C 79 % 1007,9 hPa 0,0 l/m 0 min 0 min 0,0 UV-I 0 W/m 0,0 km/h (0 Bft)
20.07.2014 02:34 23,0 C 20,6 C 79 % 1008,0 hPa 0,0 l/m 0 min 0 min 0,0 UV-I 0 W/m 0,0 km/h (0 Bft)
20.07.2014 02:36 22,9 C 20,6 C 80 % 1007,9 hPa 0,0 l/m 0 min 0 min 0,0 UV-I 0 W/m 0,0 km/h (0 Bft)
20.07.2014 02:38 22,9 C 20,6 C 80 % 1007,9 hPa 0,0 l/m 0 min 0 min 0,0 UV-I 0 W/m 0,0 km/h (0 Bft)
20.07.2014 02:40 22,8 C 20,6 C 80 % 1007,9 hPa 0,0 l/m 0 min 0 min 0,0 UV-I 0 W/m 0,0 km/h (0 Bft)
20.07.2014 02:42 22,7 C 20,0 C 80 % 1007,8 hPa 0,0 l/m 0 min 0 min 0,0 UV-I 0 W/m 0,0 km/h (0 Bft)
20.07.2014 02:44 22,7 C 20,0 C 80 % 1007,8 hPa 0,0 l/m 0 min 0 min 0,0 UV-I 0 W/m 0,0 km/h (0 Bft)
20.07.2014 02:46 22,7 C 20,0 C 80 % 1007,7 hPa 0,0 l/m 0 min 0 min 0,0 UV-I 0 W/m 0,0 km/h (0 Bft)
20.07.2014 02:48 22,7 C 20,0 C 81 % 1007,7 hPa 0,0 l/m 0 min 0 min 0,0 UV-I 0 W/m 0,0 km/h (0 Bft)
20.07.2014 02:50 22,7 C 20,0 C 81 % 1007,7 hPa 0,0 l/m 0 min 0 min 0,0 UV-I 0 W/m 0,0 km/h (0 Bft)
20.07.2014 02:52 22,7 C 20,0 C 81 % 1007,7 hPa 0,0 l/m 0 min 0 min 0,0 UV-I 0 W/m 0,0 km/h (0 Bft)
20.07.2014 02:54 22,6 C 20,0 C 81 % 1007,8 hPa 0,0 l/m 0 min 0 min 0,0 UV-I 0 W/m 0,0 km/h (0 Bft)
20.07.2014 02:56 22,6 C 20,0 C 82 % 1007,8 hPa 0,0 l/m 0 min 0 min 0,0 UV-I 0 W/m 0,0 km/h (0 Bft)
20.07.2014 02:58 22,5 C 20,0 C 82 % 1007,8 hPa 0,0 l/m 0 min 0 min 0,0 UV-I 0 W/m 0,0 km/h (0 Bft)
20.07.2014 03:00 22,4 C 20,0 C 83 % 1007,8 hPa 0,0 l/m 0 min 0 min 0,0 UV-I 0 W/m 0,0 km/h (0 Bft)
20.07.2014 03:02 22,3 C 20,0 C 83 % 1007,7 hPa 0,0 l/m 0 min 0 min 0,0 UV-I 0 W/m 0,0 km/h (0 Bft)
20.07.2014 03:04 22,2 C 20,0 C 83 % 1007,6 hPa 0,0 l/m 0 min 0 min 0,0 UV-I 0 W/m 0,0 km/h (0 Bft)
20.07.2014 03:06 22,2 C 20,0 C 83 % 1007,6 hPa 0,0 l/m 0 min 0 min 0,0 UV-I 0 W/m 0,0 km/h (0 Bft)
20.07.2014 03:08 22,1 C 20,0 C 83 % 1007,6 hPa 0,0 l/m 0 min 0 min 0,0 UV-I 0 W/m 0,0 km/h (0 Bft)
20.07.2014 03:10 22,1 C 20,0 C 84 % 1007,6 hPa 0,0 l/m 0 min 0 min 0,0 UV-I 0 W/m 0,0 km/h (0 Bft)
20.07.2014 03:12 22,0 C 19,4 C 84 % 1007,6 hPa 0,0 l/m 0 min 0 min 0,0 UV-I 0 W/m 0,0 km/h (0 Bft)
20.07.2014 03:14 22,0 C 19,4 C 84 % 1007,6 hPa 0,0 l/m 0 min 0 min 0,0 UV-I 0 W/m 0,0 km/h (0 Bft)
20.07.2014 03:16 21,9 C 19,4 C 84 % 1007,7 hPa 0,0 l/m 0 min 0 min 0,0 UV-I 0 W/m 0,0 km/h (0 Bft)
20.07.2014 03:18 21,9 C 19,4 C 84 % 1007,7 hPa 0,0 l/m 0 min 0 min 0,0 UV-I 0 W/m 0,0 km/h (0 Bft)
20.07.2014 03:20 21,9 C 19,4 C 84 % 1007,7 hPa 0,0 l/m 0 min 0 min 0,0 UV-I 0 W/m 0,0 km/h (0 Bft)
20.07.2014 03:22 21,9 C 19,4 C 84 % 1007,5 hPa 0,0 l/m 0 min 0 min 0,0 UV-I 0 W/m 0,0 km/h (0 Bft)
20.07.2014 03:24 21,9 C 19,4 C 85 % 1007,5 hPa 0,0 l/m 0 min 0 min 0,0 UV-I 0 W/m 0,0 km/h (0 Bft)
20.07.2014 03:26 21,8 C 19,4 C 85 % 1007,5 hPa 0,0 l/m 0 min 0 min 0,0 UV-I 0 W/m 0,0 km/h (0 Bft)
20.07.2014 03:28 21,8 C 19,4 C 85 % 1007,5 hPa 0,0 l/m 0 min 0 min 0,0 UV-I 0 W/m 0,0 km/h (0 Bft)
20.07.2014 03:30 21,8 C 19,4 C 85 % 1007,5 hPa 0,0 l/m 0 min 0 min 0,0 UV-I 0 W/m 0,0 km/h (0 Bft)
20.07.2014 03:32 21,8 C 19,4 C 86 % 1007,6 hPa 0,0 l/m 0 min 0 min 0,0 UV-I 0 W/m 0,0 km/h (0 Bft)
20.07.2014 03:34 21,7 C 19,4 C 86 % 1007,6 hPa 0,0 l/m 0 min 0 min 0,0 UV-I 0 W/m 0,0 km/h (0 Bft)
20.07.2014 03:36 21,7 C 19,4 C 86 % 1007,6 hPa 0,0 l/m 0 min 0 min 0,0 UV-I 0 W/m 0,0 km/h (0 Bft)
20.07.2014 03:38 21,6 C 19,4 C 86 % 1007,5 hPa 0,0 l/m 0 min 0 min 0,0 UV-I 0 W/m 0,0 km/h (0 Bft)
20.07.2014 03:40 21,6 C 19,4 C 86 % 1007,5 hPa 0,0 l/m 0 min 0 min 0,0 UV-I 0 W/m 0,0 km/h (0 Bft)
20.07.2014 03:42 21,6 C 19,4 C 86 % 1007,5 hPa 0,0 l/m 0 min 0 min 0,0 UV-I 0 W/m 0,0 km/h (0 Bft)
20.07.2014 03:44 21,5 C 19,4 C 86 % 1007,5 hPa 0,0 l/m 0 min 0 min 0,0 UV-I 0 W/m 2,1 km/h (1 Bft)
20.07.2014 03:46 21,5 C 19,4 C 87 % 1007,5 hPa 0,0 l/m 0 min 0 min 0,0 UV-I 0 W/m 0,0 km/h (0 Bft)
20.07.2014 03:48 21,4 C 19,4 C 86 % 1007,4 hPa 0,0 l/m 0 min 0 min 0,0 UV-I 0 W/m 0,0 km/h (0 Bft)
20.07.2014 03:50 21,4 C 19,4 C 87 % 1007,4 hPa 0,0 l/m 0 min 0 min 0,0 UV-I 0 W/m 0,0 km/h (0 Bft)
20.07.2014 03:52 21,4 C 19,4 C 87 % 1007,3 hPa 0,0 l/m 0 min 0 min 0,0 UV-I 0 W/m 0,0 km/h (0 Bft)
20.07.2014 03:54 21,4 C 19,4 C 87 % 1007,2 hPa 0,0 l/m 0 min 0 min 0,0 UV-I 0 W/m 0,0 km/h (0 Bft)
20.07.2014 03:56 21,4 C 19,4 C 87 % 1007,1 hPa 0,0 l/m 0 min 0 min 0,0 UV-I 0 W/m 0,0 km/h (0 Bft)
20.07.2014 03:58 21,4 C 19,4 C 87 % 1007,1 hPa 0,0 l/m 0 min 0 min 0,0 UV-I 0 W/m 0,0 km/h (0 Bft)
20.07.2014 04:00 21,5 C 19,4 C 87 % 1007,2 hPa 0,0 l/m 0 min 0 min 0,0 UV-I 0 W/m 0,0 km/h (0 Bft)
20.07.2014 04:02 21,4 C 19,4 C 87 % 1007,2 hPa 0,0 l/m 0 min 0 min 0,0 UV-I 0 W/m 0,0 km/h (0 Bft)
20.07.2014 04:04 21,4 C 19,4 C 88 % 1007,2 hPa 0,0 l/m 0 min 0 min 0,0 UV-I 0 W/m 2,1 km/h (1 Bft)
20.07.2014 04:06 21,3 C 19,4 C 88 % 1007,2 hPa 0,0 l/m 0 min 0 min 0,0 UV-I 0 W/m 0,0 km/h (0 Bft)
20.07.2014 04:08 21,3 C 19,4 C 88 % 1007,2 hPa 0,0 l/m 0 min 0 min 0,0 UV-I 0 W/m 0,0 km/h (0 Bft)
20.07.2014 04:10 21,3 C 19,4 C 89 % 1007,1 hPa 0,0 l/m 0 min 0 min 0,0 UV-I 0 W/m 0,0 km/h (0 Bft)
20.07.2014 04:12 21,2 C 19,4 C 89 % 1007,1 hPa 0,0 l/m 0 min 0 min 0,0 UV-I 0 W/m 0,0 km/h (0 Bft)
20.07.2014 04:14 21,2 C 19,4 C 89 % 1007,3 hPa 0,0 l/m 0 min 0 min 0,0 UV-I 0 W/m 0,0 km/h (0 Bft)
20.07.2014 04:16 21,2 C 18,9 C 89 % 1007,2 hPa 0,0 l/m 0 min 0 min 0,0 UV-I 0 W/m 0,0 km/h (0 Bft)
20.07.2014 04:18 21,1 C 18,9 C 89 % 1007,2 hPa 0,0 l/m 0 min 0 min 0,0 UV-I 0 W/m 0,0 km/h (0 Bft)
20.07.2014 04:20 21,1 C 18,9 C 90 % 1007,2 hPa 0,0 l/m 0 min 0 min 0,0 UV-I 0 W/m 0,0 km/h (0 Bft)
20.07.2014 04:22 21,1 C 18,9 C 90 % 1007,3 hPa 0,0 l/m 0 min 0 min 0,0 UV-I 0 W/m 0,0 km/h (0 Bft)
20.07.2014 04:24 21,0 C 18,9 C 90 % 1007,2 hPa 0,0 l/m 0 min 0 min 0,0 UV-I 0 W/m 0,0 km/h (0 Bft)
20.07.2014 04:26 21,0 C 18,9 C 90 % 1007,2 hPa 0,0 l/m 0 min 0 min 0,0 UV-I 0 W/m 0,0 km/h (0 Bft)
20.07.2014 04:28 21,0 C 18,9 C 89 % 1007,1 hPa 0,0 l/m 0 min 0 min 0,0 UV-I 0 W/m 0,0 km/h (0 Bft)
20.07.2014 04:30 20,9 C 18,9 C 89 % 1007,1 hPa 0,0 l/m 0 min 0 min 0,0 UV-I 0 W/m 0,0 km/h (0 Bft)
20.07.2014 04:32 20,9 C 18,9 C 89 % 1007,1 hPa 0,0 l/m 0 min 0 min 0,0 UV-I 0 W/m 0,0 km/h (0 Bft)
20.07.2014 04:34 20,9 C 18,9 C 89 % 1007,2 hPa 0,0 l/m 0 min 0 min 0,0 UV-I 0 W/m 0,0 km/h (0 Bft)
20.07.2014 04:36 20,9 C 18,9 C 89 % 1007,3 hPa 0,0 l/m 0 min 0 min 0,0 UV-I 0 W/m 0,0 km/h (0 Bft)
20.07.2014 04:38 20,9 C 18,9 C 89 % 1007,2 hPa 0,0 l/m 0 min 0 min 0,0 UV-I 0 W/m 0,0 km/h (0 Bft)
20.07.2014 04:40 20,9 C 18,9 C 89 % 1007,2 hPa 0,0 l/m 0 min 0 min 0,0 UV-I 0 W/m 0,0 km/h (0 Bft)
20.07.2014 04:42 20,8 C 18,9 C 89 % 1007,2 hPa 0,0 l/m 0 min 0 min 0,0 UV-I 0 W/m 0,0 km/h (0 Bft)
20.07.2014 04:44 20,9 C 18,9 C 89 % 1007,2 hPa 0,0 l/m 0 min 0 min 0,0 UV-I 0 W/m 0,0 km/h (0 Bft)
20.07.2014 04:46 20,9 C 18,9 C 89 % 1007,3 hPa 0,0 l/m 0 min 0 min 0,0 UV-I 0 W/m 0,0 km/h (0 Bft)
20.07.2014 04:48 20,9 C 18,9 C 89 % 1007,3 hPa 0,0 l/m 0 min 0 min 0,0 UV-I 0 W/m 0,0 km/h (0 Bft)
20.07.2014 04:50 20,9 C 18,9 C 89 % 1007,3 hPa 0,0 l/m 0 min 0 min 0,0 UV-I 0 W/m 0,0 km/h (0 Bft)
20.07.2014 04:52 20,8 C 18,9 C 89 % 1007,3 hPa 0,0 l/m 0 min 0 min 0,0 UV-I 0 W/m 0,0 km/h (0 Bft)
20.07.2014 04:54 20,8 C 18,9 C 89 % 1007,5 hPa 0,0 l/m 0 min 0 min 0,0 UV-I 0 W/m 0,0 km/h (0 Bft)
20.07.2014 04:56 20,8 C 18,9 C 89 % 1007,5 hPa 0,0 l/m 0 min 0 min 0,0 UV-I 0 W/m 2,1 km/h (1 Bft)
20.07.2014 04:58 20,8 C 18,9 C 89 % 1007,5 hPa 0,0 l/m 0 min 0 min 0,0 UV-I 0 W/m 0,0 km/h (0 Bft)
20.07.2014 05:00 20,8 C 18,9 C 89 % 1007,6 hPa 0,0 l/m 0 min 0 min 0,0 UV-I 0 W/m 0,0 km/h (0 Bft)
20.07.2014 05:02 20,8 C 18,9 C 89 % 1007,6 hPa 0,0 l/m 0 min 0 min 0,0 UV-I 0 W/m 0,0 km/h (0 Bft)
20.07.2014 05:04 20,8 C 18,9 C 89 % 1007,6 hPa 0,0 l/m 0 min 0 min 0,0 UV-I 0 W/m 2,1 km/h (1 Bft)
20.07.2014 05:06 20,9 C 18,9 C 89 % 1007,7 hPa 0,0 l/m 0 min 0 min 0,0 UV-I 0 W/m 0,0 km/h (0 Bft)
20.07.2014 05:08 20,9 C 18,9 C 89 % 1007,8 hPa 0,0 l/m 0 min 0 min 0,0 UV-I 0 W/m 0,0 km/h (0 Bft)
20.07.2014 05:10 20,9 C 18,9 C 89 % 1007,8 hPa 0,0 l/m 0 min 0 min 0,0 UV-I 0 W/m 0,0 km/h (0 Bft)
20.07.2014 05:12 20,8 C 18,9 C 89 % 1007,8 hPa 0,0 l/m 0 min 0 min 0,0 UV-I 0 W/m 2,1 km/h (1 Bft)
20.07.2014 05:14 20,8 C 18,9 C 89 % 1007,9 hPa 0,0 l/m 0 min 0 min 0,0 UV-I 0 W/m 0,0 km/h (0 Bft)
20.07.2014 05:16 20,8 C 18,9 C 89 % 1007,9 hPa 0,0 l/m 0 min 0 min 0,0 UV-I 0 W/m 2,1 km/h (1 Bft)
20.07.2014 05:18 20,8 C 18,9 C 89 % 1007,8 hPa 0,0 l/m 0 min 0 min 0,0 UV-I 0 W/m 0,0 km/h (0 Bft)
20.07.2014 05:20 20,8 C 18,9 C 90 % 1007,9 hPa 0,0 l/m 0 min 0 min 0,0 UV-I 0 W/m 0,0 km/h (0 Bft)
20.07.2014 05:22 20,8 C 18,9 C 90 % 1008,1 hPa 0,0 l/m 0 min 0 min 0,0 UV-I 0 W/m 2,1 km/h (1 Bft)
20.07.2014 05:24 20,8 C 18,9 C 90 % 1008,2 hPa 0,0 l/m 0 min 0 min 0,0 UV-I 0 W/m 6,3 km/h (2 Bft)
20.07.2014 05:26 20,8 C 19,4 C 90 % 1008,4 hPa 0,0 l/m 0 min 0 min 0,0 UV-I 0 W/m 8,4 km/h (2 Bft)
20.07.2014 05:28 20,7 C 19,4 C 90 % 1008,5 hPa 0,0 l/m 0 min 0 min 0,0 UV-I 0 W/m 8,4 km/h (2 Bft)
20.07.2014 05:30 20,7 C 19,4 C 90 % 1008,6 hPa 0,0 l/m 0 min 0 min 0,0 UV-I 0 W/m 12,6 km/h (3 Bft)
20.07.2014 05:32 20,8 C 19,4 C 90 % 1008,6 hPa 0,0 l/m 0 min 0 min 0,0 UV-I 0 W/m 8,4 km/h (2 Bft)
20.07.2014 05:34 20,8 C 19,4 C 90 % 1008,5 hPa 0,0 l/m 0 min 0 min 0,0 UV-I 0 W/m 6,3 km/h (2 Bft)
20.07.2014 05:36 20,9 C 19,4 C 90 % 1008,5 hPa 0,0 l/m 0 min 0 min 0,0 UV-I 0 W/m 6,3 km/h (2 Bft)
20.07.2014 05:38 20,9 C 19,4 C 89 % 1008,6 hPa 0,0 l/m 0 min 0 min 0,0 UV-I 0 W/m 10,5 km/h (2 Bft)
20.07.2014 05:40 21,0 C 19,4 C 89 % 1008,5 hPa 0,0 l/m 0 min 0 min 0,0 UV-I 0 W/m 10,5 km/h (2 Bft)
20.07.2014 05:42 21,0 C 19,4 C 89 % 1008,6 hPa 0,0 l/m 0 min 0 min 0,0 UV-I 0 W/m 12,6 km/h (3 Bft)
20.07.2014 05:44 21,0 C 19,4 C 88 % 1008,6 hPa 0,0 l/m 0 min 0 min 0,0 UV-I 0 W/m 8,4 km/h (2 Bft)
20.07.2014 05:46 21,0 C 19,4 C 88 % 1008,7 hPa 0,0 l/m 0 min 0 min 0,0 UV-I 0 W/m 6,3 km/h (2 Bft)
20.07.2014 05:48 21,0 C 19,4 C 88 % 1008,6 hPa 0,0 l/m 0 min 0 min 0,0 UV-I 0 W/m 4,2 km/h (1 Bft)
20.07.2014 05:50 21,1 C 19,4 C 88 % 1008,6 hPa 0,0 l/m 0 min 0 min 0,0 UV-I 2 W/m 0,0 km/h (0 Bft)
20.07.2014 05:52 21,1 C 19,4 C 88 % 1008,6 hPa 0,0 l/m 0 min 0 min 0,0 UV-I 5 W/m 2,1 km/h (1 Bft)
20.07.2014 05:54 21,1 C 19,4 C 88 % 1008,7 hPa 0,0 l/m 0 min 0 min 0,0 UV-I 5 W/m 8,4 km/h (2 Bft)
20.07.2014 05:56 21,1 C 19,4 C 88 % 1008,7 hPa 0,0 l/m 0 min 0 min 0,0 UV-I 5 W/m 2,1 km/h (1 Bft)
20.07.2014 05:58 21,2 C 19,4 C 88 % 1008,7 hPa 0,0 l/m 0 min 0 min 0,0 UV-I 7 W/m 0,0 km/h (0 Bft)
20.07.2014 06:00 21,3 C 19,4 C 88 % 1008,6 hPa 0,0 l/m 0 min 0 min 0,0 UV-I 7 W/m 0,0 km/h (0 Bft)
20.07.2014 06:02 21,3 C 19,4 C 87 % 1008,6 hPa 0,0 l/m 0 min 0 min 0,0 UV-I 9 W/m 0,0 km/h (0 Bft)
20.07.2014 06:06 21,3 C 19,4 C 87 % 1008,5 hPa 0,0 l/m 0 min 0 min 0,0 UV-I 11 W/m 0,0 km/h (0 Bft)
20.07.2014 06:08 21,4 C 19,4 C 87 % 1008,4 hPa 0,0 l/m 0 min 0 min 0,0 UV-I 12 W/m 0,0 km/h (0 Bft)
20.07.2014 06:10 21,4 C 19,4 C 87 % 1008,3 hPa 0,0 l/m 0 min 0 min 0,0 UV-I 14 W/m 0,0 km/h (0 Bft)
20.07.2014 06:12 21,4 C 19,4 C 87 % 1008,2 hPa 0,0 l/m 0 min 0 min 0,0 UV-I 14 W/m 0,0 km/h (0 Bft)
20.07.2014 06:14 21,4 C 19,4 C 87 % 1008,2 hPa 0,0 l/m 0 min 0 min 0,0 UV-I 15 W/m 0,0 km/h (0 Bft)
20.07.2014 06:16 21,4 C 19,4 C 87 % 1008,2 hPa 0,0 l/m 0 min 0 min 0,0 UV-I 16 W/m 0,0 km/h (0 Bft)
20.07.2014 06:18 21,3 C 19,4 C 87 % 1008,2 hPa 0,0 l/m 0 min 0 min 0,0 UV-I 16 W/m 0,0 km/h (0 Bft)
20.07.2014 06:20 21,3 C 19,4 C 87 % 1008,3 hPa 0,0 l/m 0 min 0 min 0,0 UV-I 16 W/m 2,1 km/h (1 Bft)
20.07.2014 06:22 21,3 C 19,4 C 87 % 1008,3 hPa 0,0 l/m 0 min 0 min 0,0 UV-I 16 W/m 0,0 km/h (0 Bft)
20.07.2014 06:24 21,3 C 19,4 C 87 % 1008,4 hPa 0,0 l/m 0 min 0 min 0,0 UV-I 18 W/m 0,0 km/h (0 Bft)
20.07.2014 06:26 21,3 C 19,4 C 87 % 1008,3 hPa 0,0 l/m 0 min 0 min 0,0 UV-I 19 W/m 0,0 km/h (0 Bft)
20.07.2014 06:28 21,3 C 19,4 C 87 % 1008,3 hPa 0,0 l/m 0 min 0 min 0,0 UV-I 20 W/m 0,0 km/h (0 Bft)
20.07.2014 06:30 21,3 C 19,4 C 87 % 1008,3 hPa 0,0 l/m 0 min 0 min 0,0 UV-I 21 W/m 0,0 km/h (0 Bft)
20.07.2014 06:32 21,3 C 19,4 C 87 % 1008,3 hPa 0,0 l/m 0 min 0 min 0,0 UV-I 23 W/m 0,0 km/h (0 Bft)
20.07.2014 06:34 21,3 C 19,4 C 87 % 1008,2 hPa 0,0 l/m 0 min 0 min 0,0 UV-I 25 W/m 0,0 km/h (0 Bft)
20.07.2014 06:36 21,3 C 19,4 C 87 % 1008,2 hPa 0,0 l/m 0 min 0 min 0,0 UV-I 26 W/m 0,0 km/h (0 Bft)
20.07.2014 06:38 21,3 C 19,4 C 87 % 1008,2 hPa 0,0 l/m 0 min 0 min 0,0 UV-I 28 W/m 0,0 km/h (0 Bft)
20.07.2014 06:40 21,3 C 19,4 C 87 % 1008,2 hPa 0,0 l/m 0 min 0 min 0,0 UV-I 29 W/m 0,0 km/h (0 Bft)
20.07.2014 06:42 21,3 C 19,4 C 87 % 1008,2 hPa 0,0 l/m 0 min 0 min 0,0 UV-I 32 W/m 0,0 km/h (0 Bft)
20.07.2014 06:44 21,2 C 19,4 C 88 % 1008,2 hPa 0,0 l/m 0 min 0 min 0,0 UV-I 36 W/m 0,0 km/h (0 Bft)
20.07.2014 06:46 21,2 C 19,4 C 88 % 1008,2 hPa 0,0 l/m 0 min 0 min 0,0 UV-I 39 W/m 0,0 km/h (0 Bft)
20.07.2014 06:48 21,1 C 19,4 C 89 % 1008,2 hPa 0,0 l/m 0 min 0 min 0,0 UV-I 42 W/m 0,0 km/h (0 Bft)
20.07.2014 06:50 21,1 C 19,4 C 89 % 1008,2 hPa 0,0 l/m 0 min 0 min 0,0 UV-I 45 W/m 0,0 km/h (0 Bft)
20.07.2014 06:52 21,0 C 19,4 C 89 % 1008,2 hPa 0,0 l/m 0 min 0 min 0,0 UV-I 47 W/m 0,0 km/h (0 Bft)
20.07.2014 06:54 21,0 C 19,4 C 90 % 1008,2 hPa 0,0 l/m 0 min 0 min 0,0 UV-I 47 W/m 0,0 km/h (0 Bft)
20.07.2014 06:56 20,9 C 19,4 C 90 % 1008,2 hPa 0,0 l/m 0 min 0 min 0,0 UV-I 46 W/m 0,0 km/h (0 Bft)
20.07.2014 06:58 20,9 C 19,4 C 90 % 1008,2 hPa 0,0 l/m 0 min 0 min 0,0 UV-I 45 W/m 0,0 km/h (0 Bft)
20.07.2014 07:00 20,9 C 19,4 C 90 % 1008,2 hPa 0,0 l/m 0 min 0 min 0,0 UV-I 44 W/m 0,0 km/h (0 Bft)
20.07.2014 07:02 20,9 C 19,4 C 90 % 1008,3 hPa 0,0 l/m 0 min 0 min 0,0 UV-I 42 W/m 0,0 km/h (0 Bft)
20.07.2014 07:04 20,9 C 19,4 C 91 % 1008,3 hPa 0,0 l/m 0 min 0 min 0,0 UV-I 44 W/m 0,0 km/h (0 Bft)
20.07.2014 07:06 20,9 C 19,4 C 91 % 1008,3 hPa 0,0 l/m 0 min 0 min 0,0 UV-I 46 W/m 0,0 km/h (0 Bft)
20.07.2014 07:08 20,9 C 20,0 C 91 % 1008,3 hPa 0,0 l/m 0 min 0 min 0,0 UV-I 50 W/m 0,0 km/h (0 Bft)
20.07.2014 07:10 20,9 C 20,0 C 91 % 1008,3 hPa 0,0 l/m 0 min 0 min 0,0 UV-I 54 W/m 2,1 km/h (1 Bft)
20.07.2014 07:12 20,9 C 20,0 C 91 % 1008,3 hPa 0,0 l/m 0 min 0 min 0,0 UV-I 58 W/m 0,0 km/h (0 Bft)
20.07.2014 07:14 20,9 C 20,0 C 91 % 1008,3 hPa 0,0 l/m 0 min 0 min 0,0 UV-I 63 W/m 0,0 km/h (0 Bft)
20.07.2014 07:16 20,9 C 20,0 C 91 % 1008,2 hPa 0,0 l/m 0 min 0 min 0,0 UV-I 65 W/m 0,0 km/h (0 Bft)
20.07.2014 07:18 20,9 C 20,0 C 90 % 1008,3 hPa 0,0 l/m 0 min 0 min 0,0 UV-I 65 W/m 2,1 km/h (1 Bft)
20.07.2014 07:20 20,9 C 20,0 C 90 % 1008,2 hPa 0,0 l/m 0 min 0 min 0,0 UV-I 67 W/m 0,0 km/h (0 Bft)
20.07.2014 07:22 21,0 C 20,0 C 90 % 1008,2 hPa 0,0 l/m 0 min 0 min 0,0 UV-I 68 W/m 0,0 km/h (0 Bft)
20.07.2014 07:24 21,0 C 20,0 C 90 % 1008,2 hPa 0,0 l/m 0 min 0 min 0,0 UV-I 69 W/m 0,0 km/h (0 Bft)
20.07.2014 07:26 21,1 C 20,0 C 90 % 1008,2 hPa 0,0 l/m 0 min 0 min 0,0 UV-I 69 W/m 0,0 km/h (0 Bft)
20.07.2014 07:28 21,1 C 20,0 C 90 % 1008,2 hPa 0,0 l/m 0 min 0 min 0,0 UV-I 69 W/m 2,1 km/h (1 Bft)
20.07.2014 07:30 21,1 C 20,0 C 90 % 1008,2 hPa 0,0 l/m 0 min 0 min 0,0 UV-I 69 W/m 0,0 km/h (0 Bft)
20.07.2014 07:32 21,2 C 20,0 C 90 % 1008,2 hPa 0,0 l/m 0 min 0 min 0,0 UV-I 70 W/m 0,0 km/h (0 Bft)
20.07.2014 07:34 21,2 C 20,0 C 89 % 1008,2 hPa 0,0 l/m 0 min 0 min 0,0 UV-I 74 W/m 0,0 km/h (0 Bft)
20.07.2014 07:36 21,3 C 20,0 C 89 % 1008,2 hPa 0,0 l/m 0 min 0 min 0,0 UV-I 80 W/m 0,0 km/h (0 Bft)
20.07.2014 07:38 21,3 C 20,0 C 89 % 1008,2 hPa 0,0 l/m 0 min 0 min 0,0 UV-I 89 W/m 0,0 km/h (0 Bft)
20.07.2014 07:40 21,3 C 20,0 C 89 % 1008,2 hPa 0,0 l/m 0 min 0 min 0,0 UV-I 97 W/m 0,0 km/h (0 Bft)
20.07.2014 07:42 21,4 C 20,6 C 89 % 1008,3 hPa 0,0 l/m 0 min 0 min 0,0 UV-I 103 W/m 0,0 km/h (0 Bft)
20.07.2014 07:44 21,4 C 20,6 C 89 % 1008,3 hPa 0,0 l/m 0 min 0 min 0,0 UV-I 109 W/m 0,0 km/h (0 Bft)
20.07.2014 07:46 21,5 C 20,6 C 89 % 1008,4 hPa 0,0 l/m 0 min 0 min 0,0 UV-I 114 W/m 0,0 km/h (0 Bft)
20.07.2014 07:48 21,6 C 20,6 C 89 % 1008,3 hPa 0,0 l/m 0 min 0 min 0,0 UV-I 113 W/m 2,1 km/h (1 Bft)
20.07.2014 07:50 21,6 C 20,6 C 89 % 1008,3 hPa 0,0 l/m 0 min 0 min 0,0 UV-I 112 W/m 0,0 km/h (0 Bft)
20.07.2014 07:52 21,7 C 20,6 C 89 % 1008,2 hPa 0,0 l/m 0 min 0 min 0,0 UV-I 104 W/m 0,0 km/h (0 Bft)
20.07.2014 07:54 21,7 C 20,6 C 89 % 1008,2 hPa 0,0 l/m 0 min 0 min 0,0 UV-I 96 W/m 0,0 km/h (0 Bft)
20.07.2014 07:56 21,7 C 20,6 C 89 % 1008,2 hPa 0,0 l/m 0 min 0 min 0,0 UV-I 93 W/m 0,0 km/h (0 Bft)
20.07.2014 07:58 21,7 C 20,6 C 88 % 1008,2 hPa 0,0 l/m 0 min 0 min 0,0 UV-I 90 W/m 0,0 km/h (0 Bft)
20.07.2014 08:00 21,8 C 21,1 C 88 % 1008,3 hPa 0,0 l/m 0 min 0 min 0,0 UV-I 88 W/m 0,0 km/h (0 Bft)
20.07.2014 08:02 21,8 C 21,1 C 88 % 1008,2 hPa 0,0 l/m 0 min 0 min 0,0 UV-I 90 W/m 2,1 km/h (1 Bft)
20.07.2014 08:04 21,8 C 21,1 C 88 % 1008,3 hPa 0,0 l/m 0 min 0 min 0,0 UV-I 90 W/m 6,3 km/h (2 Bft)
20.07.2014 08:06 21,9 C 21,1 C 88 % 1008,3 hPa 0,0 l/m 0 min 0 min 0,0 UV-I 92 W/m 6,3 km/h (2 Bft)
20.07.2014 08:08 21,9 C 21,1 C 88 % 1008,3 hPa 0,0 l/m 0 min 0 min 0,0 UV-I 97 W/m 0,0 km/h (0 Bft)
20.07.2014 08:10 21,9 C 21,1 C 88 % 1008,2 hPa 0,0 l/m 0 min 0 min 0,0 UV-I 105 W/m 2,1 km/h (1 Bft)
20.07.2014 08:12 22,0 C 21,1 C 88 % 1008,3 hPa 0,0 l/m 0 min 0 min 0,0 UV-I 113 W/m 0,0 km/h (0 Bft)
20.07.2014 08:14 22,0 C 21,1 C 88 % 1008,3 hPa 0,0 l/m 0 min 0 min 0,0 UV-I 119 W/m 0,0 km/h (0 Bft)
20.07.2014 08:16 22,1 C 21,1 C 88 % 1008,2 hPa 0,0 l/m 0 min 0 min 0,0 UV-I 123 W/m 0,0 km/h (0 Bft)
20.07.2014 08:18 22,1 C 21,1 C 88 % 1008,3 hPa 0,0 l/m 0 min 0 min 0,0 UV-I 124 W/m 0,0 km/h (0 Bft)
20.07.2014 08:20 22,1 C 21,7 C 88 % 1008,3 hPa 0,0 l/m 0 min 0 min 0,0 UV-I 121 W/m 0,0 km/h (0 Bft)
20.07.2014 08:22 22,1 C 21,7 C 88 % 1008,2 hPa 0,0 l/m 0 min 0 min 0,0 UV-I 120 W/m 0,0 km/h (0 Bft)
20.07.2014 08:24 22,1 C 21,7 C 88 % 1008,2 hPa 0,0 l/m 0 min 0 min 0,0 UV-I 124 W/m 0,0 km/h (0 Bft)
20.07.2014 08:26 22,2 C 21,7 C 88 % 1008,2 hPa 0,0 l/m 0 min 0 min 0,0 UV-I 129 W/m 0,0 km/h (0 Bft)
20.07.2014 08:28 22,2 C 21,7 C 88 % 1008,2 hPa 0,0 l/m 0 min 0 min 0,0 UV-I 135 W/m 0,0 km/h (0 Bft)
20.07.2014 08:30 22,2 C 21,7 C 87 % 1008,2 hPa 0,0 l/m 0 min 0 min 0,0 UV-I 144 W/m 0,0 km/h (0 Bft)
20.07.2014 08:32 22,2 C 21,7 C 87 % 1008,3 hPa 0,0 l/m 0 min 0 min 0,0 UV-I 156 W/m 0,0 km/h (0 Bft)
20.07.2014 08:34 22,3 C 21,7 C 87 % 1008,2 hPa 0,0 l/m 0 min 0 min 0,0 UV-I 172 W/m 0,0 km/h (0 Bft)
20.07.2014 08:36 22,4 C 21,7 C 87 % 1008,2 hPa 0,0 l/m 2 min 0 min 0,0 UV-I 206 W/m 2,1 km/h (1 Bft)
20.07.2014 08:38 22,4 C 21,7 C 87 % 1008,2 hPa 0,0 l/m 2 min 0 min 0,0 UV-I 224 W/m 0,0 km/h (0 Bft)
20.07.2014 08:40 22,4 C 21,7 C 87 % 1008,2 hPa 0,0 l/m 0 min 0 min 0,0 UV-I 178 W/m 0,0 km/h (0 Bft)
20.07.2014 08:42 22,5 C 21,7 C 87 % 1008,2 hPa 0,0 l/m 0 min 0 min 0,0 UV-I 179 W/m 2,1 km/h (1 Bft)
20.07.2014 08:44 22,6 C 21,7 C 87 % 1008,2 hPa 0,0 l/m 0 min 0 min 0,0 UV-I 192 W/m 0,0 km/h (0 Bft)
20.07.2014 08:46 22,5 C 21,7 C 86 % 1008,2 hPa 0,0 l/m 0 min 0 min 0,0 UV-I 148 W/m 0,0 km/h (0 Bft)
20.07.2014 08:48 22,6 C 21,7 C 86 % 1008,1 hPa 0,0 l/m 0 min 0 min 0,0 UV-I 149 W/m 0,0 km/h (0 Bft)
20.07.2014 08:50 22,6 C 21,7 C 86 % 1008,2 hPa 0,0 l/m 0 min 0 min 0,0 UV-I 144 W/m 2,1 km/h (1 Bft)
20.07.2014 08:52 22,6 C 21,7 C 86 % 1008,2 hPa 0,0 l/m 0 min 0 min 0,0 UV-I 128 W/m 0,0 km/h (0 Bft)
20.07.2014 08:54 22,6 C 21,7 C 86 % 1008,2 hPa 0,0 l/m 0 min 0 min 0,0 UV-I 114 W/m 0,0 km/h (0 Bft)
20.07.2014 08:56 22,6 C 21,7 C 86 % 1008,2 hPa 0,0 l/m 0 min 0 min 0,0 UV-I 110 W/m 0,0 km/h (0 Bft)
20.07.2014 08:58 22,6 C 21,7 C 86 % 1008,1 hPa 0,0 l/m 0 min 0 min 0,0 UV-I 112 W/m 0,0 km/h (0 Bft)
20.07.2014 09:00 22,6 C 21,7 C 86 % 1008,2 hPa 0,0 l/m 0 min 0 min 0,0 UV-I 118 W/m 0,0 km/h (0 Bft)
20.07.2014 09:02 22,6 C 21,7 C 86 % 1008,1 hPa 0,0 l/m 0 min 0 min 0,0 UV-I 114 W/m 0,0 km/h (0 Bft)
20.07.2014 09:04 22,6 C 21,7 C 86 % 1008,1 hPa 0,0 l/m 0 min 0 min 0,0 UV-I 107 W/m 0,0 km/h (0 Bft)
20.07.2014 09:06 22,6 C 21,7 C 87 % 1008,1 hPa 0,0 l/m 0 min 0 min 0,0 UV-I 110 W/m 0,0 km/h (0 Bft)
20.07.2014 09:08 22,6 C 21,7 C 88 % 1008,1 hPa 0,0 l/m 0 min 0 min 0,0 UV-I 115 W/m 0,0 km/h (0 Bft)
20.07.2014 09:10 22,6 C 21,7 C 87 % 1008,1 hPa 0,0 l/m 0 min 0 min 0,0 UV-I 117 W/m 0,0 km/h (0 Bft)
20.07.2014 09:12 22,6 C 21,7 C 86 % 1008,0 hPa 0,0 l/m 0 min 0 min 0,0 UV-I 129 W/m 0,0 km/h (0 Bft)
20.07.2014 09:14 22,6 C 21,7 C 86 % 1008,0 hPa 0,0 l/m 0 min 0 min 0,3 UV-I 148 W/m 0,0 km/h (0 Bft)
20.07.2014 09:16 22,6 C 21,7 C 86 % 1008,0 hPa 0,0 l/m 0 min 0 min 0,6 UV-I 148 W/m 0,0 km/h (0 Bft)
20.07.2014 09:18 22,7 C 21,7 C 86 % 1008,0 hPa 0,0 l/m 0 min 0 min 0,5 UV-I 206 W/m 0,0 km/h (0 Bft)
20.07.2014 09:20 22,8 C 21,7 C 86 % 1008,0 hPa 0,0 l/m 0 min 0 min 0,6 UV-I 168 W/m 0,0 km/h (0 Bft)
20.07.2014 09:22 22,8 C 21,7 C 85 % 1007,8 hPa 0,0 l/m 0 min 0 min 0,8 UV-I 203 W/m 0,0 km/h (0 Bft)
20.07.2014 09:24 22,9 C 21,7 C 85 % 1008,0 hPa 0,0 l/m 2 min 0 min 1,1 UV-I 426 W/m 0,0 km/h (0 Bft)
20.07.2014 09:26 23,1 C 21,7 C 85 % 1008,1 hPa 0,0 l/m 2 min 0 min 1,1 UV-I 414 W/m 0,0 km/h (0 Bft)
20.07.2014 09:28 23,3 C 22,2 C 85 % 1008,1 hPa 0,0 l/m 2 min 0 min 1,1 UV-I 437 W/m 2,1 km/h (1 Bft)
20.07.2014 09:30 23,5 C 22,2 C 85 % 1008,1 hPa 0,0 l/m 2 min 0 min 1,2 UV-I 455 W/m 2,1 km/h (1 Bft)
20.07.2014 09:32 23,6 C 22,2 C 84 % 1008,2 hPa 0,0 l/m 2 min 0 min 1,3 UV-I 471 W/m 0,0 km/h (0 Bft)
20.07.2014 09:34 23,6 C 22,2 C 83 % 1008,2 hPa 0,0 l/m 2 min 0 min 1,3 UV-I 477 W/m 2,1 km/h (1 Bft)
20.07.2014 09:36 23,7 C 22,2 C 83 % 1008,2 hPa 0,0 l/m 2 min 0 min 1,3 UV-I 486 W/m 0,0 km/h (0 Bft)
20.07.2014 09:38 23,8 C 22,8 C 83 % 1008,2 hPa 0,0 l/m 2 min 0 min 1,4 UV-I 507 W/m 6,3 km/h (2 Bft)
20.07.2014 09:40 24,1 C 22,8 C 83 % 1008,2 hPa 0,0 l/m 2 min 0 min 1,4 UV-I 527 W/m 2,1 km/h (1 Bft)
20.07.2014 09:42 24,2 C 22,8 C 82 % 1008,3 hPa 0,0 l/m 2 min 0 min 1,3 UV-I 462 W/m 2,1 km/h (1 Bft)
20.07.2014 09:44 24,3 C 22,8 C 82 % 1008,2 hPa 0,0 l/m 0 min 0 min 1,1 UV-I 276 W/m 8,4 km/h (2 Bft)
20.07.2014 09:46 24,3 C 22,8 C 82 % 1008,2 hPa 0,0 l/m 2 min 0 min 1,4 UV-I 378 W/m 0,0 km/h (0 Bft)
20.07.2014 09:48 24,2 C 22,8 C 81 % 1008,2 hPa 0,0 l/m 2 min 0 min 1,3 UV-I 379 W/m 0,0 km/h (0 Bft)
20.07.2014 09:50 24,1 C 22,8 C 81 % 1008,2 hPa 0,0 l/m 2 min 0 min 1,3 UV-I 370 W/m 2,1 km/h (1 Bft)
20.07.2014 09:52 24,3 C 23,3 C 82 % 1008,1 hPa 0,0 l/m 2 min 0 min 1,6 UV-I 392 W/m 0,0 km/h (0 Bft)
20.07.2014 09:54 24,5 C 23,3 C 83 % 1008,1 hPa 0,0 l/m 2 min 0 min 1,8 UV-I 534 W/m 0,0 km/h (0 Bft)
20.07.2014 09:56 24,6 C 23,3 C 80 % 1008,2 hPa 0,0 l/m 2 min 0 min 1,8 UV-I 531 W/m 2,1 km/h (1 Bft)
20.07.2014 09:58 24,7 C 23,9 C 81 % 1008,2 hPa 0,0 l/m 2 min 0 min 1,8 UV-I 534 W/m 2,1 km/h (1 Bft)
20.07.2014 10:00 24,9 C 24,4 C 79 % 1008,1 hPa 0,0 l/m 2 min 0 min 1,9 UV-I 540 W/m 0,0 km/h (0 Bft)
20.07.2014 10:02 25,1 C 24,4 C 79 % 1008,0 hPa 0,0 l/m 2 min 0 min 2,0 UV-I 559 W/m 0,0 km/h (0 Bft)
20.07.2014 10:04 25,3 C 25,0 C 78 % 1008,1 hPa 0,0 l/m 2 min 0 min 2,0 UV-I 564 W/m 10,5 km/h (2 Bft)
20.07.2014 10:06 25,4 C 25,0 C 78 % 1008,0 hPa 0,0 l/m 2 min 0 min 2,0 UV-I 570 W/m 6,3 km/h (2 Bft)
20.07.2014 10:08 25,4 C 25,6 C 77 % 1008,0 hPa 0,0 l/m 2 min 0 min 1,9 UV-I 511 W/m 0,0 km/h (0 Bft)
20.07.2014 10:10 25,7 C 26,1 C 78 % 1007,9 hPa 0,0 l/m 2 min 0 min 2,1 UV-I 570 W/m 2,1 km/h (1 Bft)
20.07.2014 10:12 25,9 C 27,2 C 77 % 1007,9 hPa 0,0 l/m 2 min 0 min 2,1 UV-I 561 W/m 10,5 km/h (2 Bft)
20.07.2014 10:14 26,0 C 27,2 C 75 % 1007,9 hPa 0,0 l/m 2 min 0 min 2,2 UV-I 580 W/m 4,2 km/h (1 Bft)
20.07.2014 10:16 25,8 C 27,8 C 74 % 1007,9 hPa 0,0 l/m 2 min 0 min 2,2 UV-I 592 W/m 8,4 km/h (2 Bft)
20.07.2014 10:18 25,9 C 28,3 C 77 % 1008,0 hPa 0,0 l/m 2 min 0 min 2,2 UV-I 558 W/m 10,5 km/h (2 Bft)
20.07.2014 10:20 26,1 C 28,9 C 77 % 1008,0 hPa 0,0 l/m 2 min 0 min 2,3 UV-I 570 W/m 10,5 km/h (2 Bft)
20.07.2014 10:22 26,3 C 29,4 C 75 % 1008,0 hPa 0,0 l/m 2 min 0 min 2,3 UV-I 602 W/m 8,4 km/h (2 Bft)
20.07.2014 10:24 26,3 C 29,4 C 74 % 1008,0 hPa 0,0 l/m 2 min 0 min 2,3 UV-I 553 W/m 14,6 km/h (3 Bft)
20.07.2014 10:26 26,4 C 29,4 C 73 % 1008,0 hPa 0,0 l/m 2 min 0 min 2,3 UV-I 595 W/m 8,4 km/h (2 Bft)
20.07.2014 10:28 26,4 C 29,4 C 73 % 1008,1 hPa 0,0 l/m 2 min 0 min 2,6 UV-I 654 W/m 6,3 km/h (2 Bft)
20.07.2014 10:30 26,6 C 30,0 C 74 % 1008,1 hPa 0,0 l/m 2 min 0 min 2,6 UV-I 650 W/m 8,4 km/h (2 Bft)
20.07.2014 10:32 26,6 C 30,0 C 73 % 1008,1 hPa 0,0 l/m 2 min 0 min 2,6 UV-I 638 W/m 10,5 km/h (2 Bft)
20.07.2014 10:34 26,6 C 30,0 C 73 % 1008,1 hPa 0,0 l/m 2 min 0 min 2,6 UV-I 670 W/m 2,1 km/h (1 Bft)
20.07.2014 10:36 26,6 C 29,4 C 71 % 1008,1 hPa 0,0 l/m 2 min 0 min 2,6 UV-I 679 W/m 12,6 km/h (3 Bft)
20.07.2014 10:38 26,7 C 30,6 C 71 % 1008,1 hPa 0,0 l/m 2 min 0 min 2,7 UV-I 683 W/m 8,4 km/h (2 Bft)
20.07.2014 10:40 26,9 C 31,1 C 72 % 1008,1 hPa 0,0 l/m 2 min 0 min 2,8 UV-I 682 W/m 10,5 km/h (2 Bft)
20.07.2014 10:42 27,1 C 31,1 C 72 % 1008,0 hPa 0,0 l/m 2 min 0 min 2,9 UV-I 677 W/m 12,6 km/h (3 Bft)
20.07.2014 10:44 27,2 C 31,1 C 71 % 1008,0 hPa 0,0 l/m 2 min 0 min 2,8 UV-I 676 W/m 10,5 km/h (2 Bft)
20.07.2014 10:46 27,2 C 30,6 C 68 % 1008,0 hPa 0,0 l/m 2 min 0 min 2,1 UV-I 675 W/m 8,4 km/h (2 Bft)
20.07.2014 10:48 27,2 C 30,6 C 69 % 1008,0 hPa 0,0 l/m 2 min 0 min 3,0 UV-I 673 W/m 6,3 km/h (2 Bft)
20.07.2014 10:50 27,2 C 30,6 C 69 % 1007,9 hPa 0,0 l/m 2 min 0 min 3,0 UV-I 674 W/m 6,3 km/h (2 Bft)
20.07.2014 10:52 27,3 C 30,6 C 69 % 1007,9 hPa 0,0 l/m 2 min 0 min 3,1 UV-I 685 W/m 6,3 km/h (2 Bft)
20.07.2014 10:54 27,4 C 30,6 C 71 % 1007,9 hPa 0,0 l/m 2 min 0 min 3,2 UV-I 691 W/m 10,5 km/h (2 Bft)
20.07.2014 10:56 27,6 C 31,1 C 69 % 1007,9 hPa 0,0 l/m 2 min 0 min 3,2 UV-I 714 W/m 4,2 km/h (1 Bft)
20.07.2014 10:58 27,6 C 31,1 C 69 % 1007,9 hPa 0,0 l/m 2 min 0 min 3,3 UV-I 738 W/m 0,0 km/h (0 Bft)
20.07.2014 11:00 27,5 C 30,6 C 69 % 1007,8 hPa 0,0 l/m 2 min 0 min 2,9 UV-I 680 W/m 8,4 km/h (2 Bft)
20.07.2014 11:02 27,4 C 31,1 C 70 % 1007,9 hPa 0,0 l/m 2 min 0 min 3,3 UV-I 656 W/m 8,4 km/h (2 Bft)
20.07.2014 11:04 27,4 C 31,1 C 68 % 1007,9 hPa 0,0 l/m 2 min 0 min 3,2 UV-I 780 W/m 10,5 km/h (2 Bft)
20.07.2014 11:06 27,6 C 31,1 C 70 % 1008,0 hPa 0,0 l/m 2 min 0 min 3,3 UV-I 805 W/m 10,5 km/h (2 Bft)
20.07.2014 11:08 27,8 C 30,0 C 70 % 1008,0 hPa 0,0 l/m 2 min 0 min 2,7 UV-I 649 W/m 8,4 km/h (2 Bft)
20.07.2014 11:10 27,7 C 29,4 C 67 % 1008,0 hPa 0,0 l/m 2 min 0 min 2,5 UV-I 460 W/m 2,1 km/h (1 Bft)
20.07.2014 11:12 27,7 C 28,9 C 67 % 1008,0 hPa 0,0 l/m 2 min 0 min 2,7 UV-I 553 W/m 4,2 km/h (1 Bft)
20.07.2014 11:14 27,6 C 28,9 C 69 % 1008,0 hPa 0,0 l/m 2 min 0 min 2,0 UV-I 472 W/m 4,2 km/h (1 Bft)
20.07.2014 11:16 27,6 C 27,8 C 68 % 1008,0 hPa 0,0 l/m 0 min 0 min 1,5 UV-I 349 W/m 12,6 km/h (3 Bft)
20.07.2014 11:18 27,4 C 27,2 C 69 % 1008,1 hPa 0,0 l/m 0 min 0 min 1,1 UV-I 194 W/m 0,0 km/h (0 Bft)
20.07.2014 11:20 27,2 C 26,7 C 70 % 1008,1 hPa 0,0 l/m 0 min 0 min 1,0 UV-I 194 W/m 0,0 km/h (0 Bft)
20.07.2014 11:22 27,0 C 26,7 C 70 % 1008,1 hPa 0,0 l/m 0 min 0 min 1,0 UV-I 200 W/m 6,3 km/h (2 Bft)
20.07.2014 11:24 26,9 C 26,1 C 69 % 1008,1 hPa 0,0 l/m 0 min 0 min 1,0 UV-I 205 W/m 6,3 km/h (2 Bft)
20.07.2014 11:26 26,9 C 26,1 C 68 % 1008,0 hPa 0,0 l/m 0 min 0 min 1,0 UV-I 198 W/m 0,0 km/h (0 Bft)
20.07.2014 11:28 26,8 C 26,1 C 70 % 1008,0 hPa 0,0 l/m 0 min 0 min 0,9 UV-I 193 W/m 0,0 km/h (0 Bft)
20.07.2014 11:30 26,7 C 26,1 C 71 % 1008,0 hPa 0,0 l/m 0 min 0 min 0,9 UV-I 190 W/m 8,4 km/h (2 Bft)
20.07.2014 11:32 26,7 C 26,1 C 71 % 1008,0 hPa 0,0 l/m 0 min 0 min 0,9 UV-I 187 W/m 6,3 km/h (2 Bft)
20.07.2014 11:34 26,6 C 26,1 C 70 % 1007,9 hPa 0,0 l/m 0 min 0 min 0,8 UV-I 175 W/m 4,2 km/h (1 Bft)
20.07.2014 11:36 26,7 C 26,1 C 72 % 1008,0 hPa 0,0 l/m 0 min 0 min 0,7 UV-I 169 W/m 0,0 km/h (0 Bft)
20.07.2014 11:38 26,6 C 25,6 C 71 % 1007,9 hPa 0,0 l/m 0 min 0 min 0,7 UV-I 159 W/m 0,0 km/h (0 Bft)
20.07.2014 11:40 26,6 C 25,6 C 71 % 1007,9 hPa 0,0 l/m 0 min 0 min 0,6 UV-I 147 W/m 2,1 km/h (1 Bft)
20.07.2014 11:42 26,5 C 25,6 C 71 % 1008,0 hPa 0,0 l/m 0 min 0 min 0,5 UV-I 138 W/m 8,4 km/h (2 Bft)
20.07.2014 11:44 26,3 C 25,0 C 72 % 1008,0 hPa 0,0 l/m 0 min 0 min 0,5 UV-I 137 W/m 8,4 km/h (2 Bft)
20.07.2014 11:46 26,2 C 25,0 C 73 % 1008,0 hPa 0,0 l/m 0 min 0 min 0,5 UV-I 139 W/m 10,5 km/h (2 Bft)
20.07.2014 11:48 26,1 C 25,0 C 73 % 1008,1 hPa 0,0 l/m 0 min 0 min 0,5 UV-I 137 W/m 6,3 km/h (2 Bft)
20.07.2014 11:50 26,1 C 25,0 C 74 % 1008,0 hPa 0,0 l/m 0 min 0 min 0,5 UV-I 137 W/m 6,3 km/h (2 Bft)
20.07.2014 11:52 26,0 C 25,0 C 74 % 1008,1 hPa 0,0 l/m 0 min 0 min 0,5 UV-I 144 W/m 8,4 km/h (2 Bft)
20.07.2014 11:54 26,0 C 25,0 C 76 % 1008,1 hPa 0,0 l/m 0 min 0 min 0,6 UV-I 151 W/m 4,2 km/h (1 Bft)
20.07.2014 11:56 25,9 C 25,0 C 75 % 1008,1 hPa 0,0 l/m 0 min 0 min 0,6 UV-I 145 W/m 8,4 km/h (2 Bft)
20.07.2014 11:58 25,9 C 25,0 C 75 % 1008,0 hPa 0,0 l/m 0 min 0 min 0,2 UV-I 135 W/m 6,3 km/h (2 Bft)
20.07.2014 12:00 25,8 C 24,4 C 75 % 1008,1 hPa 0,0 l/m 0 min 0 min 0,0 UV-I 126 W/m 6,3 km/h (2 Bft)
20.07.2014 12:02 25,8 C 24,4 C 76 % 1008,1 hPa 0,0 l/m 0 min 0 min 0,0 UV-I 112 W/m 6,3 km/h (2 Bft)
20.07.2014 12:06 25,8 C 24,4 C 77 % 1008,2 hPa 0,0 l/m 0 min 0 min 0,0 UV-I 110 W/m 2,1 km/h (1 Bft)
20.07.2014 12:08 25,7 C 24,4 C 76 % 1008,2 hPa 0,0 l/m 0 min 0 min 0,0 UV-I 114 W/m 0,0 km/h (0 Bft)
20.07.2014 12:10 25,8 C 24,4 C 77 % 1008,2 hPa 0,0 l/m 0 min 0 min 0,0 UV-I 122 W/m 2,1 km/h (1 Bft)
20.07.2014 12:12 25,7 C 24,4 C 78 % 1008,2 hPa 0,0 l/m 0 min 0 min 0,2 UV-I 148 W/m 0,0 km/h (0 Bft)
20.07.2014 12:14 25,7 C 24,4 C 78 % 1008,2 hPa 0,0 l/m 0 min 0 min 0,8 UV-I 203 W/m 0,0 km/h (0 Bft)
20.07.2014 12:16 25,8 C 25,0 C 79 % 1008,2 hPa 0,0 l/m 0 min 0 min 1,3 UV-I 283 W/m 2,1 km/h (1 Bft)
20.07.2014 12:18 25,9 C 25,6 C 80 % 1008,1 hPa 0,0 l/m 0 min 0 min 1,9 UV-I 357 W/m 0,0 km/h (0 Bft)
20.07.2014 12:20 26,2 C 26,1 C 79 % 1008,1 hPa 0,0 l/m 2 min 0 min 2,5 UV-I 436 W/m 0,0 km/h (0 Bft)
20.07.2014 12:22 26,3 C 26,7 C 76 % 1008,1 hPa 0,0 l/m 2 min 0 min 2,5 UV-I 412 W/m 0,0 km/h (0 Bft)
20.07.2014 12:24 26,5 C 26,7 C 76 % 1008,1 hPa 0,0 l/m 2 min 0 min 2,5 UV-I 418 W/m 2,1 km/h (1 Bft)
20.07.2014 12:26 26,8 C 27,2 C 78 % 1008,1 hPa 0,0 l/m 2 min 0 min 2,5 UV-I 410 W/m 10,5 km/h (2 Bft)
20.07.2014 12:28 26,8 C 27,2 C 74 % 1008,1 hPa 0,0 l/m 2 min 0 min 2,6 UV-I 416 W/m 10,5 km/h (2 Bft)
20.07.2014 12:30 26,8 C 27,2 C 74 % 1008,1 hPa 0,0 l/m 2 min 0 min 2,6 UV-I 422 W/m 8,4 km/h (2 Bft)
20.07.2014 12:32 26,9 C 27,8 C 74 % 1008,1 hPa 0,0 l/m 2 min 0 min 3,1 UV-I 459 W/m 8,4 km/h (2 Bft)
20.07.2014 12:34 27,0 C 27,8 C 73 % 1008,1 hPa 0,0 l/m 2 min 0 min 3,5 UV-I 472 W/m 8,4 km/h (2 Bft)
20.07.2014 12:36 27,2 C 28,3 C 74 % 1008,1 hPa 0,0 l/m 2 min 0 min 3,9 UV-I 540 W/m 8,4 km/h (2 Bft)
20.07.2014 12:38 27,5 C 29,4 C 73 % 1008,1 hPa 0,0 l/m 2 min 0 min 2,9 UV-I 545 W/m 12,6 km/h (3 Bft)
20.07.2014 12:40 27,7 C 30,0 C 72 % 1008,1 hPa 0,0 l/m 2 min 0 min 4,5 UV-I 674 W/m 4,2 km/h (1 Bft)
20.07.2014 12:42 28,1 C 31,1 C 71 % 1008,1 hPa 0,0 l/m 2 min 0 min 4,9 UV-I 871 W/m 0,0 km/h (0 Bft)
20.07.2014 12:44 28,0 C 30,6 C 68 % 1008,1 hPa 0,0 l/m 2 min 0 min 4,8 UV-I 849 W/m 0,0 km/h (0 Bft)
20.07.2014 12:46 27,9 C 30,0 C 68 % 1008,0 hPa 0,0 l/m 2 min 0 min 4,8 UV-I 825 W/m 0,0 km/h (0 Bft)
20.07.2014 12:48 27,9 C 30,6 C 71 % 1008,1 hPa 0,0 l/m 2 min 0 min 4,8 UV-I 809 W/m 2,1 km/h (1 Bft)
20.07.2014 12:50 28,1 C 30,6 C 70 % 1008,0 hPa 0,0 l/m 2 min 0 min 4,2 UV-I 792 W/m 0,0 km/h (0 Bft)
20.07.2014 12:52 28,4 C 30,6 C 71 % 1008,0 hPa 0,0 l/m 2 min 0 min 4,6 UV-I 805 W/m 2,1 km/h (1 Bft)
20.07.2014 12:54 28,4 C 30,6 C 71 % 1008,0 hPa 0,0 l/m 2 min 0 min 4,7 UV-I 791 W/m 10,5 km/h (2 Bft)
20.07.2014 12:56 28,6 C 30,6 C 70 % 1008,0 hPa 0,0 l/m 2 min 0 min 4,1 UV-I 833 W/m 12,6 km/h (3 Bft)
20.07.2014 12:58 28,6 C 30,6 C 71 % 1008,1 hPa 0,0 l/m 2 min 0 min 2,8 UV-I 846 W/m 10,5 km/h (2 Bft)
20.07.2014 13:00 28,4 C 30,0 C 69 % 1008,1 hPa 0,0 l/m 2 min 0 min 3,4 UV-I 526 W/m 14,6 km/h (3 Bft)
20.07.2014 13:02 28,1 C 29,4 C 70 % 1008,2 hPa 0,0 l/m 2 min 0 min 3,5 UV-I 582 W/m 14,6 km/h (3 Bft)
20.07.2014 13:04 28,0 C 28,9 C 70 % 1008,1 hPa 0,0 l/m 2 min 0 min 2,7 UV-I 553 W/m 10,5 km/h (2 Bft)
20.07.2014 13:06 27,9 C 28,9 C 70 % 1008,1 hPa 0,0 l/m 2 min 0 min 3,6 UV-I 614 W/m 2,1 km/h (1 Bft)
20.07.2014 13:08 27,9 C 28,9 C 70 % 1008,1 hPa 0,0 l/m 2 min 0 min 3,1 UV-I 594 W/m 6,3 km/h (2 Bft)
20.07.2014 13:10 27,9 C 28,9 C 73 % 1008,2 hPa 0,0 l/m 2 min 0 min 3,4 UV-I 429 W/m 8,4 km/h (2 Bft)
20.07.2014 13:12 27,9 C 28,3 C 71 % 1008,1 hPa 0,0 l/m 2 min 0 min 3,2 UV-I 440 W/m 10,5 km/h (2 Bft)
20.07.2014 13:14 28,0 C 28,9 C 71 % 1008,2 hPa 0,0 l/m 2 min 0 min 3,6 UV-I 562 W/m 2,1 km/h (1 Bft)
20.07.2014 13:16 28,1 C 28,9 C 72 % 1008,2 hPa 0,0 l/m 2 min 0 min 3,8 UV-I 533 W/m 12,6 km/h (3 Bft)
20.07.2014 13:18 28,3 C 29,4 C 73 % 1008,2 hPa 0,0 l/m 2 min 0 min 4,4 UV-I 676 W/m 10,5 km/h (2 Bft)
20.07.2014 13:20 28,1 C 29,4 C 70 % 1008,2 hPa 0,0 l/m 2 min 0 min 4,6 UV-I 789 W/m 10,5 km/h (2 Bft)
20.07.2014 13:22 28,1 C 29,4 C 73 % 1008,2 hPa 0,0 l/m 2 min 0 min 4,7 UV-I 801 W/m 10,5 km/h (2 Bft)
20.07.2014 13:24 28,2 C 29,4 C 70 % 1008,2 hPa 0,0 l/m 2 min 0 min 4,7 UV-I 809 W/m 12,6 km/h (3 Bft)
20.07.2014 13:26 28,6 C 29,4 C 72 % 1008,3 hPa 0,0 l/m 2 min 0 min 4,9 UV-I 892 W/m 10,5 km/h (2 Bft)
20.07.2014 13:28 28,9 C 30,0 C 72 % 1008,3 hPa 0,0 l/m 2 min 0 min 4,6 UV-I 841 W/m 10,5 km/h (2 Bft)
20.07.2014 13:30 28,8 C 29,4 C 70 % 1008,3 hPa 0,0 l/m 2 min 0 min 3,8 UV-I 669 W/m 12,6 km/h (3 Bft)
20.07.2014 13:32 28,6 C 28,9 C 67 % 1008,4 hPa 0,0 l/m 2 min 0 min 3,3 UV-I 504 W/m 0,0 km/h (0 Bft)
20.07.2014 13:34 28,3 C 28,9 C 68 % 1008,4 hPa 0,0 l/m 0 min 0 min 3,1 UV-I 396 W/m 2,1 km/h (1 Bft)
20.07.2014 13:36 28,1 C 28,9 C 70 % 1008,4 hPa 0,0 l/m 2 min 0 min 3,1 UV-I 433 W/m 10,5 km/h (2 Bft)
20.07.2014 13:38 28,2 C 28,9 C 72 % 1008,4 hPa 0,0 l/m 2 min 0 min 3,4 UV-I 473 W/m 8,4 km/h (2 Bft)
20.07.2014 13:40 28,3 C 29,4 C 71 % 1008,4 hPa 0,0 l/m 2 min 0 min 3,6 UV-I 512 W/m 2,1 km/h (1 Bft)
20.07.2014 13:42 28,7 C 29,4 C 71 % 1008,4 hPa 0,0 l/m 2 min 0 min 3,8 UV-I 575 W/m 10,5 km/h (2 Bft)
20.07.2014 13:44 28,6 C 29,4 C 69 % 1008,4 hPa 0,0 l/m 2 min 0 min 3,4 UV-I 498 W/m 12,6 km/h (3 Bft)
20.07.2014 13:46 28,6 C 28,9 C 69 % 1008,4 hPa 0,0 l/m 2 min 0 min 3,3 UV-I 479 W/m 14,6 km/h (3 Bft)
20.07.2014 13:48 28,6 C 28,9 C 69 % 1008,5 hPa 0,0 l/m 0 min 0 min 2,5 UV-I 403 W/m 10,5 km/h (2 Bft)
20.07.2014 13:50 28,5 C 28,9 C 69 % 1008,5 hPa 0,0 l/m 0 min 0 min 2,6 UV-I 383 W/m 8,4 km/h (2 Bft)
20.07.2014 13:52 28,4 C 28,9 C 69 % 1008,5 hPa 0,0 l/m 0 min 0 min 2,3 UV-I 340 W/m 8,4 km/h (2 Bft)
20.07.2014 13:54 28,2 C 28,9 C 69 % 1008,6 hPa 0,0 l/m 0 min 0 min 2,5 UV-I 389 W/m 10,5 km/h (2 Bft)
20.07.2014 13:56 28,1 C 28,9 C 67 % 1008,6 hPa 0,0 l/m 2 min 0 min 3,0 UV-I 497 W/m 10,5 km/h (2 Bft)
20.07.2014 13:58 28,2 C 28,9 C 69 % 1008,5 hPa 0,0 l/m 2 min 0 min 3,2 UV-I 637 W/m 14,6 km/h (3 Bft)
20.07.2014 14:00 28,2 C 28,9 C 68 % 1008,5 hPa 0,0 l/m 2 min 0 min 2,8 UV-I 470 W/m 16,7 km/h (3 Bft)
20.07.2014 14:02 28,3 C 28,3 C 68 % 1008,5 hPa 0,0 l/m 0 min 0 min 2,9 UV-I 387 W/m 8,4 km/h (2 Bft)
20.07.2014 14:04 28,3 C 28,3 C 68 % 1008,4 hPa 0,0 l/m 0 min 0 min 2,9 UV-I 356 W/m 12,6 km/h (3 Bft)
20.07.2014 14:06 28,4 C 28,9 C 68 % 1008,4 hPa 0,0 l/m 2 min 0 min 4,1 UV-I 662 W/m 10,5 km/h (2 Bft)
20.07.2014 14:08 28,5 C 28,3 C 66 % 1008,5 hPa 0,0 l/m 2 min 0 min 4,4 UV-I 816 W/m 8,4 km/h (2 Bft)
20.07.2014 14:10 28,7 C 28,9 C 69 % 1008,4 hPa 0,0 l/m 2 min 0 min 4,5 UV-I 806 W/m 10,5 km/h (2 Bft)
20.07.2014 14:12 28,9 C 29,4 C 68 % 1008,4 hPa 0,0 l/m 2 min 0 min 4,5 UV-I 823 W/m 8,4 km/h (2 Bft)
20.07.2014 14:14 29,1 C 29,4 C 66 % 1008,4 hPa 0,0 l/m 2 min 0 min 4,3 UV-I 825 W/m 16,7 km/h (3 Bft)
20.07.2014 14:16 29,1 C 28,9 C 66 % 1008,4 hPa 0,0 l/m 2 min 0 min 3,3 UV-I 630 W/m 12,6 km/h (3 Bft)
20.07.2014 14:18 29,1 C 28,9 C 66 % 1008,3 hPa 0,0 l/m 2 min 0 min 3,7 UV-I 429 W/m 10,5 km/h (2 Bft)
20.07.2014 14:20 29,2 C 29,4 C 65 % 1008,3 hPa 0,0 l/m 2 min 0 min 4,2 UV-I 754 W/m 16,7 km/h (3 Bft)
20.07.2014 14:22 29,0 C 28,9 C 66 % 1008,2 hPa 0,0 l/m 2 min 0 min 3,4 UV-I 593 W/m 10,5 km/h (2 Bft)
20.07.2014 14:24 28,8 C 28,9 C 66 % 1008,3 hPa 0,0 l/m 0 min 0 min 3,0 UV-I 383 W/m 20,9 km/h (4 Bft)
20.07.2014 14:26 28,7 C 28,3 C 65 % 1008,3 hPa 0,0 l/m 0 min 0 min 2,9 UV-I 365 W/m 10,5 km/h (2 Bft)
20.07.2014 14:28 28,4 C 28,3 C 65 % 1008,3 hPa 0,0 l/m 2 min 0 min 3,4 UV-I 594 W/m 8,4 km/h (2 Bft)
20.07.2014 14:30 28,5 C 28,9 C 67 % 1008,3 hPa 0,0 l/m 2 min 0 min 3,5 UV-I 764 W/m 12,6 km/h (3 Bft)
20.07.2014 14:32 28,9 C 28,9 C 67 % 1008,4 hPa 0,0 l/m 2 min 0 min 3,3 UV-I 765 W/m 18,8 km/h (3 Bft)
20.07.2014 14:34 29,2 C 29,4 C 68 % 1008,5 hPa 0,0 l/m 2 min 0 min 3,4 UV-I 764 W/m 10,5 km/h (2 Bft)
20.07.2014 14:36 29,6 C 30,0 C 65 % 1008,5 hPa 0,0 l/m 2 min 0 min 3,3 UV-I 816 W/m 10,5 km/h (2 Bft)
20.07.2014 14:38 29,6 C 29,4 C 63 % 1008,5 hPa 0,0 l/m 2 min 0 min 3,1 UV-I 652 W/m 14,6 km/h (3 Bft)
20.07.2014 14:40 29,4 C 29,4 C 66 % 1008,5 hPa 0,0 l/m 2 min 0 min 2,9 UV-I 419 W/m 16,7 km/h (3 Bft)
20.07.2014 14:42 29,3 C 29,4 C 68 % 1008,5 hPa 0,0 l/m 2 min 0 min 2,8 UV-I 457 W/m 14,6 km/h (3 Bft)
20.07.2014 14:44 29,3 C 29,4 C 67 % 1008,5 hPa 0,0 l/m 2 min 0 min 2,8 UV-I 505 W/m 16,7 km/h (3 Bft)
20.07.2014 14:46 29,1 C 28,9 C 67 % 1008,5 hPa 0,0 l/m 2 min 0 min 2,4 UV-I 446 W/m 14,6 km/h (3 Bft)
20.07.2014 14:48 28,9 C 28,3 C 67 % 1008,5 hPa 0,0 l/m 0 min 0 min 2,3 UV-I 354 W/m 20,9 km/h (4 Bft)
20.07.2014 14:50 28,9 C 28,9 C 68 % 1008,5 hPa 0,0 l/m 2 min 0 min 3,0 UV-I 520 W/m 8,4 km/h (2 Bft)
20.07.2014 14:52 29,1 C 29,4 C 67 % 1008,6 hPa 0,0 l/m 2 min 0 min 3,5 UV-I 774 W/m 16,7 km/h (3 Bft)
20.07.2014 14:54 29,1 C 29,4 C 67 % 1008,5 hPa 0,0 l/m 2 min 0 min 3,4 UV-I 720 W/m 14,6 km/h (3 Bft)
20.07.2014 14:56 29,2 C 29,4 C 66 % 1008,6 hPa 0,0 l/m 2 min 0 min 3,3 UV-I 709 W/m 16,7 km/h (3 Bft)
20.07.2014 14:58 29,2 C 29,4 C 68 % 1008,6 hPa 0,0 l/m 2 min 0 min 2,9 UV-I 516 W/m 16,7 km/h (3 Bft)
20.07.2014 15:00 29,1 C 28,9 C 67 % 1008,6 hPa 0,0 l/m 0 min 0 min 2,1 UV-I 289 W/m 18,8 km/h (3 Bft)
20.07.2014 15:02 28,9 C 28,9 C 69 % 1008,7 hPa 0,0 l/m 0 min 0 min 1,8 UV-I 277 W/m 12,6 km/h (3 Bft)
20.07.2014 15:04 28,7 C 28,3 C 68 % 1008,7 hPa 0,0 l/m 0 min 0 min 1,8 UV-I 285 W/m 12,6 km/h (3 Bft)
20.07.2014 15:06 28,6 C 28,3 C 69 % 1008,6 hPa 0,0 l/m 0 min 0 min 1,9 UV-I 322 W/m 12,6 km/h (3 Bft)
20.07.2014 15:08 28,4 C 28,3 C 70 % 1008,6 hPa 0,0 l/m 0 min 0 min 2,0 UV-I 331 W/m 12,6 km/h (3 Bft)
20.07.2014 15:10 28,3 C 28,3 C 69 % 1008,6 hPa 0,0 l/m 0 min 0 min 1,6 UV-I 268 W/m 14,6 km/h (3 Bft)
20.07.2014 15:12 28,2 C 27,8 C 70 % 1008,6 hPa 0,0 l/m 0 min 0 min 1,3 UV-I 228 W/m 10,5 km/h (2 Bft)
20.07.2014 15:14 28,1 C 27,8 C 70 % 1008,6 hPa 0,0 l/m 0 min 0 min 1,2 UV-I 204 W/m 10,5 km/h (2 Bft)
20.07.2014 15:16 28,0 C 27,8 C 70 % 1008,6 hPa 0,0 l/m 0 min 0 min 1,0 UV-I 186 W/m 12,6 km/h (3 Bft)
20.07.2014 15:18 27,9 C 27,2 C 70 % 1008,7 hPa 0,0 l/m 0 min 0 min 0,8 UV-I 161 W/m 14,6 km/h (3 Bft)
20.07.2014 15:20 27,7 C 27,2 C 71 % 1008,6 hPa 0,0 l/m 0 min 0 min 0,6 UV-I 133 W/m 14,6 km/h (3 Bft)
20.07.2014 15:22 27,6 C 26,7 C 70 % 1008,6 hPa 0,0 l/m 0 min 0 min 0,5 UV-I 138 W/m 12,6 km/h (3 Bft)
20.07.2014 15:24 27,4 C 26,7 C 71 % 1008,6 hPa 0,0 l/m 0 min 0 min 0,5 UV-I 140 W/m 14,6 km/h (3 Bft)
20.07.2014 15:26 27,3 C 26,7 C 71 % 1008,6 hPa 0,0 l/m 0 min 0 min 0,3 UV-I 126 W/m 10,5 km/h (2 Bft)
20.07.2014 15:28 27,2 C 26,1 C 72 % 1008,5 hPa 0,0 l/m 0 min 0 min 0,0 UV-I 116 W/m 8,4 km/h (2 Bft)
20.07.2014 15:30 27,2 C 26,1 C 74 % 1008,5 hPa 0,0 l/m 0 min 0 min 0,1 UV-I 127 W/m 2,1 km/h (1 Bft)
20.07.2014 15:32 27,1 C 26,1 C 72 % 1008,5 hPa 0,0 l/m 0 min 0 min 0,5 UV-I 145 W/m 10,5 km/h (2 Bft)
20.07.2014 15:34 27,1 C 26,1 C 72 % 1008,4 hPa 0,0 l/m 0 min 0 min 0,6 UV-I 147 W/m 14,6 km/h (3 Bft)
20.07.2014 15:36 27,1 C 26,1 C 72 % 1008,4 hPa 0,0 l/m 0 min 0 min 0,3 UV-I 135 W/m 10,5 km/h (2 Bft)
20.07.2014 15:38 27,1 C 25,6 C 72 % 1008,4 hPa 0,0 l/m 0 min 2 min 0,0 UV-I 124 W/m 10,5 km/h (2 Bft)
20.07.2014 15:40 27,0 C 25,6 C 72 % 1008,4 hPa 0,0 l/m 0 min 2 min 0,0 UV-I 123 W/m 12,6 km/h (3 Bft)
20.07.2014 15:42 26,9 C 25,6 C 72 % 1008,3 hPa 0,0 l/m 0 min 2 min 0,0 UV-I 119 W/m 8,4 km/h (2 Bft)
20.07.2014 15:44 26,8 C 25,0 C 72 % 1008,3 hPa 0,0 l/m 0 min 2 min 0,0 UV-I 107 W/m 12,6 km/h (3 Bft)
20.07.2014 15:46 26,7 C 24,4 C 73 % 1008,4 hPa 0,0 l/m 0 min 2 min 0,0 UV-I 97 W/m 8,4 km/h (2 Bft)
20.07.2014 15:48 26,6 C 24,4 C 75 % 1008,4 hPa 0,0 l/m 0 min 2 min 0,0 UV-I 100 W/m 2,1 km/h (1 Bft)
20.07.2014 15:50 26,5 C 23,9 C 75 % 1008,5 hPa 0,0 l/m 0 min 2 min 0,0 UV-I 117 W/m 8,4 km/h (2 Bft)
20.07.2014 15:52 26,4 C 23,9 C 77 % 1008,6 hPa 0,0 l/m 0 min 2 min 0,0 UV-I 125 W/m 8,4 km/h (2 Bft)
20.07.2014 15:54 26,3 C 23,9 C 78 % 1008,9 hPa 0,0 l/m 0 min 2 min 0,0 UV-I 108 W/m 16,7 km/h (3 Bft)
20.07.2014 15:56 26,0 C 22,2 C 78 % 1009,4 hPa 0,0 l/m 0 min 2 min 0,0 UV-I 61 W/m 46,0 km/h (6 Bft)
20.07.2014 15:58 25,3 C 20,6 C 76 % 1009,4 hPa 0,0 l/m 0 min 2 min 0,0 UV-I 27 W/m 27,2 km/h (4 Bft)
20.07.2014 16:00 24,3 C 19,4 C 77 % 1009,2 hPa 0,4 l/m 0 min 2 min 0,0 UV-I 24 W/m 43,9 km/h (6 Bft)
20.07.2014 16:02 23,3 C 18,9 C 80 % 1009,4 hPa 0,2 l/m 0 min 2 min 0,0 UV-I 29 W/m 56,5 km/h (7 Bft)
20.07.2014 16:04 22,2 C 17,8 C 81 % 1009,6 hPa 0,2 l/m 0 min 2 min 0,0 UV-I 39 W/m 41,8 km/h (6 Bft)
20.07.2014 16:06 21,5 C 17,8 C 83 % 1009,3 hPa 0,4 l/m 0 min 2 min 0,0 UV-I 45 W/m 43,9 km/h (6 Bft)
20.07.2014 16:08 20,9 C 17,8 C 85 % 1009,2 hPa 0,4 l/m 0 min 2 min 0,0 UV-I 50 W/m 62,8 km/h (8 Bft)
20.07.2014 16:10 20,5 C 17,8 C 88 % 1009,2 hPa 1,0 l/m 0 min 2 min 0,0 UV-I 62 W/m 31,4 km/h (5 Bft)
20.07.2014 16:12 20,2 C 18,3 C 89 % 1009,2 hPa 0,4 l/m 0 min 2 min 0,0 UV-I 71 W/m 33,5 km/h (5 Bft)
20.07.2014 16:14 20,1 C 18,3 C 90 % 1009,1 hPa 0,4 l/m 0 min 2 min 0,0 UV-I 71 W/m 23,0 km/h (4 Bft)
20.07.2014 16:16 20,0 C 18,3 C 91 % 1009,2 hPa 0,2 l/m 0 min 2 min 0,0 UV-I 82 W/m 29,3 km/h (5 Bft)
20.07.2014 16:18 19,9 C 18,3 C 91 % 1009,1 hPa 0,0 l/m 0 min 2 min 0,0 UV-I 94 W/m 31,4 km/h (5 Bft)
20.07.2014 16:20 19,9 C 18,3 C 92 % 1009,1 hPa 0,2 l/m 0 min 2 min 0,0 UV-I 103 W/m 29,3 km/h (5 Bft)
20.07.2014 16:22 19,9 C 18,3 C 92 % 1009,3 hPa 0,2 l/m 0 min 2 min 0,0 UV-I 104 W/m 16,7 km/h (3 Bft)
20.07.2014 16:24 19,9 C 18,9 C 93 % 1009,3 hPa 0,0 l/m 0 min 2 min 0,0 UV-I 88 W/m 16,7 km/h (3 Bft)
20.07.2014 16:26 19,9 C 18,3 C 93 % 1009,4 hPa 0,2 l/m 0 min 2 min 0,0 UV-I 83 W/m 14,6 km/h (3 Bft)
20.07.2014 16:28 19,9 C 18,9 C 93 % 1009,4 hPa 0,2 l/m 0 min 2 min 0,0 UV-I 97 W/m 10,5 km/h (2 Bft)
20.07.2014 16:30 19,9 C 18,9 C 94 % 1009,4 hPa 0,0 l/m 0 min 2 min 0,0 UV-I 102 W/m 16,7 km/h (3 Bft)
20.07.2014 16:32 20,1 C 18,9 C 94 % 1009,5 hPa 0,0 l/m 0 min 2 min 0,0 UV-I 95 W/m 18,8 km/h (3 Bft)
20.07.2014 16:34 20,1 C 18,9 C 94 % 1009,5 hPa 0,0 l/m 0 min 2 min 0,0 UV-I 88 W/m 10,5 km/h (2 Bft)
20.07.2014 16:36 20,1 C 18,9 C 94 % 1009,5 hPa 0,0 l/m 0 min 2 min 0,0 UV-I 84 W/m 6,3 km/h (2 Bft)
20.07.2014 16:38 20,0 C 18,9 C 94 % 1009,5 hPa 0,0 l/m 0 min 2 min 0,0 UV-I 81 W/m 10,5 km/h (2 Bft)
20.07.2014 16:40 20,0 C 18,9 C 94 % 1009,4 hPa 0,0 l/m 0 min 2 min 0,0 UV-I 77 W/m 0,0 km/h (0 Bft)
20.07.2014 16:42 20,1 C 18,9 C 94 % 1009,4 hPa 0,2 l/m 0 min 2 min 0,0 UV-I 71 W/m 10,5 km/h (2 Bft)
20.07.2014 16:44 20,2 C 18,9 C 95 % 1009,3 hPa 0,0 l/m 0 min 2 min 0,0 UV-I 73 W/m 8,4 km/h (2 Bft)
20.07.2014 16:46 20,2 C 18,9 C 95 % 1009,2 hPa 0,2 l/m 0 min 2 min 0,0 UV-I 79 W/m 12,6 km/h (3 Bft)
20.07.2014 16:48 20,3 C 18,9 C 95 % 1009,1 hPa 0,0 l/m 0 min 2 min 0,0 UV-I 75 W/m 10,5 km/h (2 Bft)
20.07.2014 16:50 20,3 C 19,4 C 95 % 1009,1 hPa 0,0 l/m 0 min 2 min 0,0 UV-I 66 W/m 8,4 km/h (2 Bft)
20.07.2014 16:52 20,5 C 19,4 C 96 % 1009,2 hPa 0,0 l/m 0 min 2 min 0,0 UV-I 66 W/m 8,4 km/h (2 Bft)
20.07.2014 16:54 20,6 C 19,4 C 96 % 1009,3 hPa 0,0 l/m 0 min 2 min 0,0 UV-I 70 W/m 6,3 km/h (2 Bft)
20.07.2014 16:56 20,7 C 19,4 C 96 % 1009,4 hPa 0,0 l/m 0 min 2 min 0,0 UV-I 73 W/m 10,5 km/h (2 Bft)
20.07.2014 16:58 20,7 C 19,4 C 96 % 1009,5 hPa 0,0 l/m 0 min 2 min 0,0 UV-I 70 W/m 10,5 km/h (2 Bft)
20.07.2014 17:00 20,7 C 19,4 C 96 % 1009,6 hPa 0,0 l/m 0 min 0 min 0,0 UV-I 67 W/m 8,4 km/h (2 Bft)
20.07.2014 17:02 20,7 C 19,4 C 96 % 1009,7 hPa 0,0 l/m 0 min 0 min 0,0 UV-I 66 W/m 0,0 km/h (0 Bft)
20.07.2014 17:04 20,7 C 19,4 C 96 % 1009,8 hPa 0,0 l/m 0 min 0 min 0,0 UV-I 63 W/m 6,3 km/h (2 Bft)
20.07.2014 17:06 20,7 C 19,4 C 96 % 1009,7 hPa 0,0 l/m 0 min 2 min 0,0 UV-I 60 W/m 0,0 km/h (0 Bft)
20.07.2014 17:08 20,7 C 19,4 C 96 % 1009,7 hPa 0,0 l/m 0 min 2 min 0,0 UV-I 66 W/m 0,0 km/h (0 Bft)
20.07.2014 17:10 20,8 C 19,4 C 96 % 1009,6 hPa 0,2 l/m 0 min 2 min 0,0 UV-I 75 W/m 0,0 km/h (0 Bft)
20.07.2014 17:12 20,8 C 19,4 C 96 % 1009,6 hPa 0,0 l/m 0 min 2 min 0,0 UV-I 80 W/m 2,1 km/h (1 Bft)
20.07.2014 17:14 20,8 C 19,4 C 96 % 1009,5 hPa 0,0 l/m 0 min 2 min 0,0 UV-I 85 W/m 6,3 km/h (2 Bft)
20.07.2014 17:16 20,9 C 19,4 C 96 % 1009,6 hPa 0,0 l/m 0 min 2 min 0,0 UV-I 90 W/m 4,2 km/h (1 Bft)
20.07.2014 17:18 20,9 C 19,4 C 96 % 1009,6 hPa 0,2 l/m 0 min 2 min 0,0 UV-I 91 W/m 0,0 km/h (0 Bft)
20.07.2014 17:20 20,8 C 19,4 C 96 % 1009,5 hPa 0,0 l/m 0 min 2 min 0,0 UV-I 87 W/m 2,1 km/h (1 Bft)
20.07.2014 17:22 20,8 C 19,4 C 96 % 1009,4 hPa 0,0 l/m 0 min 2 min 0,0 UV-I 84 W/m 6,3 km/h (2 Bft)
20.07.2014 17:24 20,8 C 19,4 C 96 % 1009,4 hPa 0,0 l/m 0 min 2 min 0,0 UV-I 82 W/m 4,2 km/h (1 Bft)
20.07.2014 17:26 20,8 C 19,4 C 96 % 1009,4 hPa 0,0 l/m 0 min 2 min 0,0 UV-I 91 W/m 0,0 km/h (0 Bft)
20.07.2014 17:28 20,9 C 20,0 C 96 % 1009,3 hPa 0,0 l/m 0 min 2 min 0,0 UV-I 119 W/m 0,0 km/h (0 Bft)
20.07.2014 17:30 21,0 C 20,0 C 96 % 1009,3 hPa 0,0 l/m 0 min 2 min 0,0 UV-I 157 W/m 6,3 km/h (2 Bft)
20.07.2014 17:32 21,1 C 20,0 C 96 % 1009,3 hPa 0,0 l/m 0 min 2 min 0,0 UV-I 179 W/m 6,3 km/h (2 Bft)
20.07.2014 17:34 21,1 C 20,0 C 96 % 1009,2 hPa 0,0 l/m 0 min 0 min 0,4 UV-I 193 W/m 8,4 km/h (2 Bft)
20.07.2014 17:36 21,3 C 20,0 C 97 % 1009,2 hPa 0,0 l/m 0 min 0 min 0,6 UV-I 207 W/m 8,4 km/h (2 Bft)
20.07.2014 17:38 21,4 C 20,6 C 97 % 1009,2 hPa 0,0 l/m 0 min 0 min 0,7 UV-I 223 W/m 10,5 km/h (2 Bft)
20.07.2014 17:40 21,5 C 20,6 C 97 % 1009,2 hPa 0,0 l/m 0 min 0 min 0,7 UV-I 238 W/m 0,0 km/h (0 Bft)
20.07.2014 17:42 21,7 C 20,6 C 97 % 1009,3 hPa 0,0 l/m 0 min 0 min 0,8 UV-I 245 W/m 0,0 km/h (0 Bft)
20.07.2014 17:44 21,8 C 20,6 C 97 % 1009,3 hPa 0,0 l/m 2 min 0 min 0,9 UV-I 320 W/m 2,1 km/h (1 Bft)
20.07.2014 17:46 22,0 C 21,1 C 97 % 1009,3 hPa 0,0 l/m 2 min 0 min 0,9 UV-I 448 W/m 8,4 km/h (2 Bft)
20.07.2014 17:48 22,1 C 21,1 C 97 % 1009,4 hPa 0,0 l/m 2 min 0 min 0,8 UV-I 442 W/m 10,5 km/h (2 Bft)
20.07.2014 17:50 22,2 C 21,1 C 97 % 1009,4 hPa 0,0 l/m 2 min 0 min 0,8 UV-I 444 W/m 10,5 km/h (2 Bft)
20.07.2014 17:52 22,1 C 21,1 C 97 % 1009,4 hPa 0,0 l/m 2 min 0 min 0,8 UV-I 458 W/m 8,4 km/h (2 Bft)
20.07.2014 17:54 22,3 C 21,1 C 97 % 1009,4 hPa 0,0 l/m 2 min 0 min 0,7 UV-I 411 W/m 0,0 km/h (0 Bft)
20.07.2014 17:56 22,4 C 21,7 C 97 % 1009,5 hPa 0,0 l/m 0 min 0 min 0,6 UV-I 256 W/m 0,0 km/h (0 Bft)
20.07.2014 17:58 22,5 C 21,7 C 97 % 1009,5 hPa 0,0 l/m 0 min 0 min 0,6 UV-I 221 W/m 12,6 km/h (3 Bft)
20.07.2014 18:00 22,3 C 21,7 C 97 % 1009,4 hPa 0,0 l/m 0 min 0 min 0,5 UV-I 207 W/m 12,6 km/h (3 Bft)
20.07.2014 18:02 22,2 C 21,7 C 97 % 1009,2 hPa 0,0 l/m 0 min 0 min 0,1 UV-I 198 W/m 10,5 km/h (2 Bft)
20.07.2014 18:06 22,1 C 21,1 C 96 % 1009,1 hPa 0,0 l/m 0 min 0 min 0,0 UV-I 173 W/m 10,5 km/h (2 Bft)
20.07.2014 18:08 22,0 C 21,1 C 96 % 1009,1 hPa 0,0 l/m 0 min 0 min 0,0 UV-I 156 W/m 2,1 km/h (1 Bft)
20.07.2014 18:10 22,1 C 21,1 C 96 % 1009,1 hPa 0,0 l/m 0 min 0 min 0,0 UV-I 147 W/m 0,0 km/h (0 Bft)
20.07.2014 18:12 22,1 C 21,1 C 96 % 1009,2 hPa 0,0 l/m 0 min 0 min 0,0 UV-I 141 W/m 2,1 km/h (1 Bft)
20.07.2014 18:14 22,1 C 21,1 C 96 % 1009,2 hPa 0,0 l/m 0 min 0 min 0,0 UV-I 143 W/m 2,1 km/h (1 Bft)
20.07.2014 18:16 22,0 C 21,1 C 96 % 1009,1 hPa 0,0 l/m 0 min 0 min 0,0 UV-I 145 W/m 0,0 km/h (0 Bft)
20.07.2014 18:18 22,0 C 21,1 C 96 % 1009,2 hPa 0,0 l/m 0 min 0 min 0,0 UV-I 136 W/m 2,1 km/h (1 Bft)
20.07.2014 18:20 22,1 C 21,1 C 96 % 1009,2 hPa 0,0 l/m 0 min 0 min 0,0 UV-I 123 W/m 0,0 km/h (0 Bft)
20.07.2014 18:22 22,1 C 21,1 C 96 % 1009,2 hPa 0,0 l/m 0 min 0 min 0,0 UV-I 121 W/m 0,0 km/h (0 Bft)
20.07.2014 18:24 21,9 C 21,1 C 96 % 1009,2 hPa 0,0 l/m 0 min 0 min 0,0 UV-I 112 W/m 2,1 km/h (1 Bft)
20.07.2014 18:26 22,0 C 21,1 C 95 % 1009,3 hPa 0,0 l/m 0 min 0 min 0,0 UV-I 89 W/m 2,1 km/h (1 Bft)
20.07.2014 18:28 21,9 C 21,1 C 95 % 1009,3 hPa 0,0 l/m 0 min 0 min 0,0 UV-I 74 W/m 0,0 km/h (0 Bft)
20.07.2014 18:30 21,9 C 20,6 C 95 % 1009,3 hPa 0,0 l/m 0 min 0 min 0,0 UV-I 67 W/m 0,0 km/h (0 Bft)
20.07.2014 18:32 21,9 C 20,6 C 95 % 1009,3 hPa 0,0 l/m 0 min 0 min 0,0 UV-I 64 W/m 0,0 km/h (0 Bft)
20.07.2014 18:34 21,9 C 20,6 C 95 % 1009,3 hPa 0,0 l/m 0 min 0 min 0,0 UV-I 63 W/m 0,0 km/h (0 Bft)
20.07.2014 18:36 21,9 C 20,6 C 95 % 1009,3 hPa 0,0 l/m 0 min 0 min 0,0 UV-I 63 W/m 2,1 km/h (1 Bft)
20.07.2014 18:38 21,8 C 20,6 C 94 % 1009,3 hPa 0,0 l/m 0 min 0 min 0,0 UV-I 62 W/m 0,0 km/h (0 Bft)
20.07.2014 18:40 21,8 C 20,6 C 94 % 1009,3 hPa 0,0 l/m 0 min 0 min 0,0 UV-I 59 W/m 0,0 km/h (0 Bft)
20.07.2014 18:42 21,8 C 20,6 C 94 % 1009,3 hPa 0,0 l/m 0 min 0 min 0,0 UV-I 55 W/m 0,0 km/h (0 Bft)
20.07.2014 18:44 21,9 C 20,6 C 94 % 1009,2 hPa 0,0 l/m 0 min 0 min 0,0 UV-I 56 W/m 0,0 km/h (0 Bft)
20.07.2014 18:46 21,9 C 20,6 C 94 % 1009,3 hPa 0,0 l/m 0 min 0 min 0,0 UV-I 58 W/m 0,0 km/h (0 Bft)
20.07.2014 18:48 21,9 C 20,6 C 94 % 1009,3 hPa 0,0 l/m 0 min 0 min 0,0 UV-I 56 W/m 0,0 km/h (0 Bft)
20.07.2014 18:50 21,9 C 20,6 C 94 % 1009,4 hPa 0,0 l/m 0 min 0 min 0,0 UV-I 79 W/m 0,0 km/h (0 Bft)
20.07.2014 18:52 21,9 C 20,6 C 94 % 1009,5 hPa 0,0 l/m 0 min 0 min 0,0 UV-I 71 W/m 0,0 km/h (0 Bft)
20.07.2014 18:54 21,9 C 20,6 C 95 % 1009,4 hPa 0,0 l/m 0 min 0 min 0,0 UV-I 54 W/m 0,0 km/h (0 Bft)
20.07.2014 18:56 21,9 C 20,6 C 95 % 1009,5 hPa 0,0 l/m 0 min 0 min 0,0 UV-I 57 W/m 0,0 km/h (0 Bft)
20.07.2014 18:58 22,0 C 20,6 C 95 % 1009,5 hPa 0,0 l/m 0 min 0 min 0,0 UV-I 61 W/m 0,0 km/h (0 Bft)
20.07.2014 19:00 22,0 C 20,6 C 95 % 1009,6 hPa 0,0 l/m 0 min 0 min 0,0 UV-I 64 W/m 0,0 km/h (0 Bft)
20.07.2014 19:02 21,9 C 20,6 C 96 % 1009,6 hPa 0,0 l/m 0 min 0 min 0,0 UV-I 68 W/m 0,0 km/h (0 Bft)
20.07.2014 19:04 21,9 C 20,6 C 96 % 1009,6 hPa 0,0 l/m 0 min 0 min 0,0 UV-I 76 W/m 2,1 km/h (1 Bft)
20.07.2014 19:06 21,9 C 20,6 C 96 % 1009,6 hPa 0,0 l/m 0 min 0 min 0,0 UV-I 87 W/m 0,0 km/h (0 Bft)
20.07.2014 19:08 21,9 C 20,6 C 96 % 1009,7 hPa 0,0 l/m 0 min 0 min 0,0 UV-I 101 W/m 0,0 km/h (0 Bft)
20.07.2014 19:10 22,0 C 21,1 C 96 % 1009,7 hPa 0,0 l/m 0 min 0 min 0,0 UV-I 124 W/m 0,0 km/h (0 Bft)
20.07.2014 19:12 22,1 C 21,1 C 96 % 1009,8 hPa 0,0 l/m 0 min 0 min 0,0 UV-I 134 W/m 2,1 km/h (1 Bft)
20.07.2014 19:14 22,1 C 21,1 C 96 % 1009,7 hPa 0,0 l/m 2 min 0 min 0,0 UV-I 175 W/m 0,0 km/h (0 Bft)
20.07.2014 19:16 22,2 C 21,1 C 96 % 1009,7 hPa 0,0 l/m 0 min 0 min 0,0 UV-I 152 W/m 0,0 km/h (0 Bft)
20.07.2014 19:18 22,2 C 21,1 C 96 % 1009,7 hPa 0,0 l/m 0 min 0 min 0,0 UV-I 139 W/m 0,0 km/h (0 Bft)
20.07.2014 19:20 22,2 C 21,1 C 97 % 1009,7 hPa 0,0 l/m 0 min 0 min 0,0 UV-I 134 W/m 0,0 km/h (0 Bft)
20.07.2014 19:22 22,3 C 21,7 C 97 % 1009,6 hPa 0,0 l/m 0 min 0 min 0,0 UV-I 131 W/m 6,3 km/h (2 Bft)
20.07.2014 19:24 22,2 C 21,1 C 97 % 1009,7 hPa 0,0 l/m 0 min 0 min 0,0 UV-I 127 W/m 0,0 km/h (0 Bft)
20.07.2014 19:26 22,2 C 21,1 C 96 % 1009,7 hPa 0,0 l/m 0 min 0 min 0,0 UV-I 109 W/m 0,0 km/h (0 Bft)
20.07.2014 19:28 22,3 C 21,1 C 96 % 1009,7 hPa 0,0 l/m 0 min 0 min 0,0 UV-I 96 W/m 2,1 km/h (1 Bft)
20.07.2014 19:30 22,3 C 21,1 C 96 % 1009,7 hPa 0,0 l/m 0 min 0 min 0,0 UV-I 73 W/m 0,0 km/h (0 Bft)
20.07.2014 19:32 22,3 C 21,1 C 96 % 1009,7 hPa 0,0 l/m 0 min 0 min 0,0 UV-I 59 W/m 0,0 km/h (0 Bft)
20.07.2014 19:34 22,3 C 21,1 C 96 % 1009,7 hPa 0,0 l/m 0 min 0 min 0,0 UV-I 57 W/m 2,1 km/h (1 Bft)
20.07.2014 19:36 22,3 C 21,1 C 96 % 1009,8 hPa 0,0 l/m 0 min 0 min 0,0 UV-I 60 W/m 2,1 km/h (1 Bft)
20.07.2014 19:38 22,3 C 21,1 C 96 % 1009,9 hPa 0,0 l/m 0 min 0 min 0,0 UV-I 63 W/m 2,1 km/h (1 Bft)
20.07.2014 19:40 22,3 C 21,1 C 96 % 1009,9 hPa 0,0 l/m 0 min 0 min 0,0 UV-I 64 W/m 0,0 km/h (0 Bft)
20.07.2014 19:42 22,3 C 21,1 C 96 % 1010,0 hPa 0,0 l/m 0 min 0 min 0,0 UV-I 69 W/m 0,0 km/h (0 Bft)
20.07.2014 19:44 22,2 C 21,1 C 96 % 1010,0 hPa 0,0 l/m 0 min 0 min 0,0 UV-I 70 W/m 2,1 km/h (1 Bft)
20.07.2014 19:46 22,3 C 21,1 C 96 % 1009,9 hPa 0,0 l/m 0 min 0 min 0,0 UV-I 70 W/m 0,0 km/h (0 Bft)
20.07.2014 19:48 22,2 C 21,1 C 96 % 1009,9 hPa 0,0 l/m 0 min 0 min 0,0 UV-I 71 W/m 0,0 km/h (0 Bft)
20.07.2014 19:50 22,2 C 21,1 C 96 % 1009,9 hPa 0,0 l/m 0 min 0 min 0,0 UV-I 70 W/m 0,0 km/h (0 Bft)
20.07.2014 19:52 22,2 C 21,1 C 96 % 1010,0 hPa 0,0 l/m 0 min 0 min 0,0 UV-I 68 W/m 0,0 km/h (0 Bft)
20.07.2014 19:54 22,3 C 21,1 C 96 % 1009,9 hPa 0,0 l/m 0 min 0 min 0,0 UV-I 65 W/m 0,0 km/h (0 Bft)
20.07.2014 19:56 22,3 C 21,1 C 96 % 1009,9 hPa 0,0 l/m 0 min 0 min 0,0 UV-I 64 W/m 0,0 km/h (0 Bft)
20.07.2014 19:58 22,4 C 21,1 C 96 % 1009,8 hPa 0,0 l/m 0 min 0 min 0,0 UV-I 63 W/m 4,2 km/h (1 Bft)
20.07.2014 20:00 22,3 C 21,1 C 96 % 1009,9 hPa 0,0 l/m 0 min 0 min 0,0 UV-I 63 W/m 0,0 km/h (0 Bft)
20.07.2014 20:02 22,3 C 21,1 C 96 % 1009,8 hPa 0,0 l/m 0 min 0 min 0,0 UV-I 64 W/m 4,2 km/h (1 Bft)
20.07.2014 20:04 22,3 C 21,1 C 96 % 1009,7 hPa 0,0 l/m 0 min 0 min 0,0 UV-I 65 W/m 6,3 km/h (2 Bft)
20.07.2014 20:06 22,3 C 21,1 C 96 % 1009,8 hPa 0,0 l/m 0 min 0 min 0,0 UV-I 67 W/m 6,3 km/h (2 Bft)
20.07.2014 20:08 22,3 C 21,1 C 96 % 1009,8 hPa 0,0 l/m 0 min 0 min 0,0 UV-I 69 W/m 8,4 km/h (2 Bft)
20.07.2014 20:10 22,3 C 21,1 C 95 % 1009,8 hPa 0,0 l/m 0 min 0 min 0,0 UV-I 71 W/m 8,4 km/h (2 Bft)
20.07.2014 20:12 22,3 C 21,1 C 95 % 1009,8 hPa 0,0 l/m 0 min 0 min 0,0 UV-I 74 W/m 4,2 km/h (1 Bft)
20.07.2014 20:14 22,3 C 21,1 C 95 % 1009,7 hPa 0,0 l/m 0 min 0 min 0,0 UV-I 64 W/m 2,1 km/h (1 Bft)
20.07.2014 20:16 22,3 C 21,1 C 95 % 1009,8 hPa 0,0 l/m 0 min 0 min 0,0 UV-I 61 W/m 0,0 km/h (0 Bft)
20.07.2014 20:18 22,3 C 21,1 C 95 % 1009,7 hPa 0,0 l/m 0 min 0 min 0,0 UV-I 57 W/m 0,0 km/h (0 Bft)
20.07.2014 20:20 22,3 C 20,6 C 95 % 1009,6 hPa 0,0 l/m 0 min 0 min 0,0 UV-I 55 W/m 0,0 km/h (0 Bft)
20.07.2014 20:22 22,3 C 20,6 C 95 % 1009,6 hPa 0,0 l/m 0 min 0 min 0,0 UV-I 51 W/m 0,0 km/h (0 Bft)
20.07.2014 20:24 22,3 C 20,6 C 95 % 1009,7 hPa 0,0 l/m 0 min 0 min 0,0 UV-I 48 W/m 0,0 km/h (0 Bft)
20.07.2014 20:26 22,3 C 20,6 C 95 % 1009,7 hPa 0,0 l/m 0 min 0 min 0,0 UV-I 44 W/m 0,0 km/h (0 Bft)
20.07.2014 20:28 22,3 C 20,6 C 95 % 1009,7 hPa 0,0 l/m 0 min 0 min 0,0 UV-I 40 W/m 0,0 km/h (0 Bft)
20.07.2014 20:30 22,2 C 20,6 C 95 % 1009,8 hPa 0,0 l/m 0 min 0 min 0,0 UV-I 36 W/m 0,0 km/h (0 Bft)
20.07.2014 20:32 22,2 C 20,6 C 95 % 1009,8 hPa 0,0 l/m 0 min 0 min 0,0 UV-I 31 W/m 0,0 km/h (0 Bft)
20.07.2014 20:34 22,2 C 20,6 C 95 % 1009,9 hPa 0,0 l/m 0 min 0 min 0,0 UV-I 28 W/m 0,0 km/h (0 Bft)
20.07.2014 20:36 22,2 C 20,6 C 95 % 1009,8 hPa 0,0 l/m 0 min 0 min 0,0 UV-I 26 W/m 0,0 km/h (0 Bft)
20.07.2014 20:38 22,3 C 20,6 C 95 % 1009,8 hPa 0,0 l/m 0 min 0 min 0,0 UV-I 26 W/m 0,0 km/h (0 Bft)
20.07.2014 20:40 22,3 C 20,6 C 95 % 1009,9 hPa 0,0 l/m 0 min 0 min 0,0 UV-I 26 W/m 0,0 km/h (0 Bft)
20.07.2014 20:42 22,2 C 20,6 C 95 % 1009,9 hPa 0,0 l/m 0 min 0 min 0,0 UV-I 26 W/m 0,0 km/h (0 Bft)
20.07.2014 20:44 22,2 C 20,6 C 95 % 1010,0 hPa 0,0 l/m 0 min 0 min 0,0 UV-I 26 W/m 0,0 km/h (0 Bft)
20.07.2014 20:46 22,2 C 20,6 C 95 % 1009,9 hPa 0,0 l/m 0 min 0 min 0,0 UV-I 25 W/m 0,0 km/h (0 Bft)
20.07.2014 20:48 22,1 C 20,6 C 95 % 1010,0 hPa 0,0 l/m 0 min 0 min 0,0 UV-I 25 W/m 0,0 km/h (0 Bft)
20.07.2014 20:50 22,1 C 20,6 C 95 % 1010,0 hPa 0,0 l/m 0 min 0 min 0,0 UV-I 23 W/m 2,1 km/h (1 Bft)
20.07.2014 20:52 22,1 C 20,6 C 95 % 1010,0 hPa 0,0 l/m 0 min 0 min 0,0 UV-I 23 W/m 0,0 km/h (0 Bft)
20.07.2014 20:54 22,0 C 20,6 C 95 % 1010,0 hPa 0,0 l/m 0 min 0 min 0,0 UV-I 23 W/m 0,0 km/h (0 Bft)
20.07.2014 20:56 21,9 C 20,6 C 96 % 1010,0 hPa 0,0 l/m 0 min 0 min 0,0 UV-I 21 W/m 0,0 km/h (0 Bft)
20.07.2014 20:58 21,9 C 20,6 C 95 % 1010,0 hPa 0,0 l/m 0 min 0 min 0,0 UV-I 21 W/m 2,1 km/h (1 Bft)
20.07.2014 21:00 21,8 C 20,0 C 95 % 1010,0 hPa 0,0 l/m 0 min 0 min 0,0 UV-I 19 W/m 0,0 km/h (0 Bft)
20.07.2014 21:02 21,8 C 20,0 C 95 % 1010,0 hPa 0,0 l/m 0 min 0 min 0,0 UV-I 18 W/m 0,0 km/h (0 Bft)
20.07.2014 21:04 21,8 C 20,0 C 95 % 1010,0 hPa 0,0 l/m 0 min 0 min 0,0 UV-I 17 W/m 0,0 km/h (0 Bft)
20.07.2014 21:06 21,8 C 20,0 C 95 % 1010,0 hPa 0,0 l/m 0 min 0 min 0,0 UV-I 16 W/m 0,0 km/h (0 Bft)
20.07.2014 21:08 21,8 C 20,0 C 95 % 1010,0 hPa 0,0 l/m 0 min 0 min 0,0 UV-I 14 W/m 0,0 km/h (0 Bft)
20.07.2014 21:10 21,7 C 20,0 C 95 % 1010,1 hPa 0,0 l/m 0 min 0 min 0,0 UV-I 14 W/m 0,0 km/h (0 Bft)
20.07.2014 21:12 21,7 C 20,0 C 95 % 1010,1 hPa 0,0 l/m 0 min 0 min 0,0 UV-I 14 W/m 0,0 km/h (0 Bft)
20.07.2014 21:14 21,7 C 20,0 C 95 % 1010,1 hPa 0,0 l/m 0 min 0 min 0,0 UV-I 15 W/m 2,1 km/h (1 Bft)
20.07.2014 21:16 21,7 C 20,0 C 95 % 1010,1 hPa 0,0 l/m 0 min 0 min 0,0 UV-I 16 W/m 0,0 km/h (0 Bft)
20.07.2014 21:18 21,7 C 20,0 C 95 % 1010,1 hPa 0,0 l/m 2 min 0 min 0,0 UV-I 16 W/m 0,0 km/h (0 Bft)
20.07.2014 21:20 21,7 C 20,0 C 95 % 1010,0 hPa 0,0 l/m 0 min 0 min 0,0 UV-I 13 W/m 0,0 km/h (0 Bft)
20.07.2014 21:22 21,7 C 20,0 C 95 % 1010,0 hPa 0,0 l/m 0 min 0 min 0,0 UV-I 12 W/m 0,0 km/h (0 Bft)
20.07.2014 21:24 21,7 C 20,0 C 95 % 1010,0 hPa 0,0 l/m 0 min 0 min 0,0 UV-I 11 W/m 0,0 km/h (0 Bft)
20.07.2014 21:26 21,7 C 20,0 C 95 % 1010,0 hPa 0,0 l/m 0 min 0 min 0,0 UV-I 11 W/m 0,0 km/h (0 Bft)
20.07.2014 21:28 21,6 C 20,0 C 95 % 1010,0 hPa 0,0 l/m 0 min 0 min 0,0 UV-I 11 W/m 0,0 km/h (0 Bft)
20.07.2014 21:30 21,6 C 20,0 C 95 % 1010,0 hPa 0,0 l/m 0 min 0 min 0,0 UV-I 10 W/m 0,0 km/h (0 Bft)
20.07.2014 21:32 21,6 C 20,0 C 95 % 1010,0 hPa 0,0 l/m 0 min 0 min 0,0 UV-I 9 W/m 0,0 km/h (0 Bft)
20.07.2014 21:34 21,5 C 19,4 C 96 % 1009,9 hPa 0,0 l/m 0 min 0 min 0,0 UV-I 7 W/m 0,0 km/h (0 Bft)
20.07.2014 21:36 21,5 C 19,4 C 96 % 1009,9 hPa 0,0 l/m 0 min 0 min 0,0 UV-I 4 W/m 0,0 km/h (0 Bft)
20.07.2014 21:38 21,4 C 19,4 C 96 % 1009,9 hPa 0,0 l/m 0 min 0 min 0,0 UV-I 0 W/m 0,0 km/h (0 Bft)
20.07.2014 21:40 21,4 C 19,4 C 96 % 1009,9 hPa 0,0 l/m 0 min 0 min 0,0 UV-I 0 W/m 0,0 km/h (0 Bft)
20.07.2014 21:42 21,4 C 19,4 C 96 % 1009,9 hPa 0,0 l/m 0 min 0 min 0,0 UV-I 0 W/m 0,0 km/h (0 Bft)
20.07.2014 21:44 21,4 C 19,4 C 95 % 1009,9 hPa 0,0 l/m 0 min 0 min 0,0 UV-I 0 W/m 0,0 km/h (0 Bft)
20.07.2014 21:46 21,4 C 19,4 C 96 % 1010,0 hPa 0,0 l/m 0 min 0 min 0,0 UV-I 0 W/m 0,0 km/h (0 Bft)
20.07.2014 21:48 21,4 C 19,4 C 96 % 1009,9 hPa 0,0 l/m 0 min 0 min 0,0 UV-I 0 W/m 0,0 km/h (0 Bft)
20.07.2014 21:50 21,4 C 19,4 C 96 % 1010,0 hPa 0,0 l/m 0 min 0 min 0,0 UV-I 0 W/m 0,0 km/h (0 Bft)
20.07.2014 21:52 21,4 C 19,4 C 96 % 1009,9 hPa 0,0 l/m 0 min 0 min 0,0 UV-I 0 W/m 0,0 km/h (0 Bft)
20.07.2014 21:54 21,4 C 19,4 C 96 % 1010,0 hPa 0,0 l/m 0 min 0 min 0,0 UV-I 0 W/m 0,0 km/h (0 Bft)
20.07.2014 21:56 21,3 C 19,4 C 96 % 1010,0 hPa 0,0 l/m 0 min 0 min 0,0 UV-I 0 W/m 0,0 km/h (0 Bft)
20.07.2014 21:58 21,3 C 19,4 C 96 % 1010,0 hPa 0,0 l/m 0 min 0 min 0,0 UV-I 0 W/m 0,0 km/h (0 Bft)
20.07.2014 22:00 21,3 C 19,4 C 96 % 1010,0 hPa 0,0 l/m 0 min 0 min 0,0 UV-I 0 W/m 0,0 km/h (0 Bft)
20.07.2014 22:02 21,2 C 19,4 C 96 % 1010,1 hPa 0,0 l/m 0 min 0 min 0,0 UV-I 0 W/m 0,0 km/h (0 Bft)
20.07.2014 22:04 21,2 C 19,4 C 96 % 1010,1 hPa 0,0 l/m 0 min 0 min 0,0 UV-I 0 W/m 0,0 km/h (0 Bft)
20.07.2014 22:06 21,2 C 19,4 C 96 % 1010,1 hPa 0,0 l/m 0 min 0 min 0,0 UV-I 0 W/m 0,0 km/h (0 Bft)
20.07.2014 22:08 21,2 C 19,4 C 96 % 1010,1 hPa 0,0 l/m 0 min 0 min 0,0 UV-I 0 W/m 0,0 km/h (0 Bft)
20.07.2014 22:10 21,1 C 19,4 C 96 % 1010,1 hPa 0,0 l/m 0 min 0 min 0,0 UV-I 0 W/m 0,0 km/h (0 Bft)
20.07.2014 22:12 21,1 C 19,4 C 96 % 1010,2 hPa 0,0 l/m 0 min 0 min 0,0 UV-I 0 W/m 0,0 km/h (0 Bft)
20.07.2014 22:14 21,2 C 19,4 C 96 % 1010,2 hPa 0,0 l/m 0 min 0 min 0,0 UV-I 0 W/m 0,0 km/h (0 Bft)
20.07.2014 22:16 21,2 C 19,4 C 96 % 1010,2 hPa 0,0 l/m 0 min 0 min 0,0 UV-I 0 W/m 0,0 km/h (0 Bft)
20.07.2014 22:18 21,1 C 19,4 C 96 % 1010,2 hPa 0,0 l/m 0 min 0 min 0,0 UV-I 0 W/m 0,0 km/h (0 Bft)
20.07.2014 22:20 21,1 C 19,4 C 97 % 1010,2 hPa 0,0 l/m 0 min 0 min 0,0 UV-I 0 W/m 0,0 km/h (0 Bft)
20.07.2014 22:22 21,1 C 19,4 C 97 % 1010,2 hPa 0,0 l/m 0 min 0 min 0,0 UV-I 0 W/m 0,0 km/h (0 Bft)
20.07.2014 22:24 21,1 C 19,4 C 97 % 1010,2 hPa 0,0 l/m 0 min 0 min 0,0 UV-I 0 W/m 0,0 km/h (0 Bft)
20.07.2014 22:26 21,0 C 19,4 C 97 % 1010,2 hPa 0,0 l/m 0 min 0 min 0,0 UV-I 0 W/m 0,0 km/h (0 Bft)
20.07.2014 22:28 21,0 C 19,4 C 97 % 1010,2 hPa 0,0 l/m 0 min 0 min 0,0 UV-I 0 W/m 0,0 km/h (0 Bft)
20.07.2014 22:30 21,0 C 19,4 C 97 % 1010,2 hPa 0,0 l/m 0 min 0 min 0,0 UV-I 0 W/m 0,0 km/h (0 Bft)
20.07.2014 22:32 21,0 C 19,4 C 97 % 1010,2 hPa 0,0 l/m 0 min 0 min 0,0 UV-I 0 W/m 0,0 km/h (0 Bft)
20.07.2014 22:34 21,0 C 19,4 C 97 % 1010,2 hPa 0,0 l/m 0 min 0 min 0,0 UV-I 0 W/m 0,0 km/h (0 Bft)
20.07.2014 22:36 21,0 C 19,4 C 97 % 1010,2 hPa 0,0 l/m 0 min 0 min 0,0 UV-I 0 W/m 0,0 km/h (0 Bft)
20.07.2014 22:38 21,0 C 19,4 C 97 % 1010,2 hPa 0,0 l/m 0 min 0 min 0,0 UV-I 0 W/m 0,0 km/h (0 Bft)
20.07.2014 22:40 20,9 C 18,9 C 97 % 1010,2 hPa 0,0 l/m 0 min 0 min 0,0 UV-I 0 W/m 0,0 km/h (0 Bft)
20.07.2014 22:42 20,9 C 18,9 C 97 % 1010,1 hPa 0,0 l/m 0 min 0 min 0,0 UV-I 0 W/m 0,0 km/h (0 Bft)
20.07.2014 22:44 20,9 C 18,9 C 97 % 1010,2 hPa 0,0 l/m 0 min 0 min 0,0 UV-I 0 W/m 0,0 km/h (0 Bft)
20.07.2014 22:46 20,8 C 18,9 C 97 % 1010,2 hPa 0,0 l/m 0 min 0 min 0,0 UV-I 0 W/m 0,0 km/h (0 Bft)
20.07.2014 22:48 20,8 C 18,9 C 97 % 1010,2 hPa 0,0 l/m 0 min 0 min 0,0 UV-I 0 W/m 0,0 km/h (0 Bft)
20.07.2014 22:50 20,8 C 18,9 C 97 % 1010,3 hPa 0,0 l/m 0 min 0 min 0,0 UV-I 0 W/m 0,0 km/h (0 Bft)
20.07.2014 22:52 20,8 C 18,9 C 97 % 1010,2 hPa 0,0 l/m 0 min 0 min 0,0 UV-I 0 W/m 0,0 km/h (0 Bft)
20.07.2014 22:54 20,8 C 18,9 C 97 % 1010,2 hPa 0,0 l/m 0 min 0 min 0,0 UV-I 0 W/m 0,0 km/h (0 Bft)
20.07.2014 22:56 20,8 C 18,9 C 97 % 1010,3 hPa 0,0 l/m 0 min 0 min 0,0 UV-I 0 W/m 0,0 km/h (0 Bft)
20.07.2014 22:58 20,7 C 18,9 C 97 % 1010,4 hPa 0,0 l/m 0 min 0 min 0,0 UV-I 0 W/m 0,0 km/h (0 Bft)
20.07.2014 23:00 20,7 C 18,9 C 97 % 1010,3 hPa 0,0 l/m 0 min 0 min 0,0 UV-I 0 W/m 0,0 km/h (0 Bft)
20.07.2014 23:02 20,7 C 18,9 C 97 % 1010,4 hPa 0,0 l/m 0 min 0 min 0,0 UV-I 0 W/m 0,0 km/h (0 Bft)
20.07.2014 23:04 20,7 C 18,9 C 97 % 1010,4 hPa 0,0 l/m 0 min 0 min 0,0 UV-I 0 W/m 0,0 km/h (0 Bft)
20.07.2014 23:06 20,7 C 18,9 C 97 % 1010,4 hPa 0,0 l/m 0 min 0 min 0,0 UV-I 0 W/m 0,0 km/h (0 Bft)
20.07.2014 23:08 20,7 C 18,9 C 98 % 1010,5 hPa 0,0 l/m 0 min 0 min 0,0 UV-I 0 W/m 0,0 km/h (0 Bft)
20.07.2014 23:10 20,7 C 18,9 C 98 % 1010,5 hPa 0,0 l/m 0 min 0 min 0,0 UV-I 0 W/m 0,0 km/h (0 Bft)
20.07.2014 23:12 20,7 C 18,9 C 98 % 1010,5 hPa 0,0 l/m 0 min 0 min 0,0 UV-I 0 W/m 0,0 km/h (0 Bft)
20.07.2014 23:14 20,7 C 18,9 C 98 % 1010,5 hPa 0,0 l/m 0 min 0 min 0,0 UV-I 0 W/m 0,0 km/h (0 Bft)
20.07.2014 23:16 20,7 C 18,9 C 98 % 1010,4 hPa 0,0 l/m 0 min 0 min 0,0 UV-I 0 W/m 0,0 km/h (0 Bft)
20.07.2014 23:18 20,7 C 18,9 C 98 % 1010,4 hPa 0,0 l/m 0 min 0 min 0,0 UV-I 0 W/m 0,0 km/h (0 Bft)
20.07.2014 23:20 20,7 C 18,9 C 98 % 1010,4 hPa 0,0 l/m 0 min 0 min 0,0 UV-I 0 W/m 0,0 km/h (0 Bft)
20.07.2014 23:22 20,7 C 18,9 C 98 % 1010,4 hPa 0,0 l/m 0 min 0 min 0,0 UV-I 0 W/m 0,0 km/h (0 Bft)
20.07.2014 23:24 20,6 C 18,9 C 98 % 1010,4 hPa 0,0 l/m 0 min 0 min 0,0 UV-I 0 W/m 0,0 km/h (0 Bft)
20.07.2014 23:26 20,6 C 18,9 C 98 % 1010,4 hPa 0,0 l/m 0 min 0 min 0,0 UV-I 0 W/m 0,0 km/h (0 Bft)
20.07.2014 23:28 20,6 C 18,9 C 98 % 1010,4 hPa 0,0 l/m 0 min 0 min 0,0 UV-I 0 W/m 0,0 km/h (0 Bft)
20.07.2014 23:30 20,6 C 18,9 C 98 % 1010,4 hPa 0,0 l/m 0 min 0 min 0,0 UV-I 0 W/m 0,0 km/h (0 Bft)
20.07.2014 23:32 20,6 C 18,9 C 98 % 1010,4 hPa 0,0 l/m 0 min 0 min 0,0 UV-I 0 W/m 0,0 km/h (0 Bft)
20.07.2014 23:34 20,5 C 18,9 C 98 % 1010,4 hPa 0,0 l/m 0 min 0 min 0,0 UV-I 0 W/m 0,0 km/h (0 Bft)
20.07.2014 23:36 20,5 C 18,9 C 98 % 1010,4 hPa 0,0 l/m 0 min 0 min 0,0 UV-I 0 W/m 0,0 km/h (0 Bft)
20.07.2014 23:38 20,4 C 18,9 C 98 % 1010,3 hPa 0,0 l/m 0 min 0 min 0,0 UV-I 0 W/m 0,0 km/h (0 Bft)
20.07.2014 23:40 20,4 C 18,9 C 98 % 1010,3 hPa 0,0 l/m 0 min 0 min 0,0 UV-I 0 W/m 0,0 km/h (0 Bft)
20.07.2014 23:42 20,4 C 18,9 C 98 % 1010,3 hPa 0,0 l/m 0 min 0 min 0,0 UV-I 0 W/m 0,0 km/h (0 Bft)
20.07.2014 23:44 20,4 C 18,9 C 98 % 1010,4 hPa 0,0 l/m 0 min 0 min 0,0 UV-I 0 W/m 0,0 km/h (0 Bft)
20.07.2014 23:46 20,4 C 18,9 C 98 % 1010,4 hPa 0,0 l/m 0 min 0 min 0,0 UV-I 0 W/m 0,0 km/h (0 Bft)
20.07.2014 23:48 20,4 C 18,9 C 98 % 1010,4 hPa 0,0 l/m 0 min 0 min 0,0 UV-I 0 W/m 0,0 km/h (0 Bft)
20.07.2014 23:50 20,4 C 18,9 C 98 % 1010,4 hPa 0,0 l/m 0 min 0 min 0,0 UV-I 0 W/m 0,0 km/h (0 Bft)
20.07.2014 23:52 20,3 C 18,9 C 98 % 1010,4 hPa 0,0 l/m 0 min 0 min 0,0 UV-I 0 W/m 0,0 km/h (0 Bft)
20.07.2014 23:54 20,3 C 18,9 C 98 % 1010,4 hPa 0,0 l/m 0 min 0 min 0,0 UV-I 0 W/m 0,0 km/h (0 Bft)
20.07.2014 23:56 20,3 C 18,9 C 98 % 1010,4 hPa 0,0 l/m 0 min 0 min 0,0 UV-I 0 W/m 0,0 km/h (0 Bft)
20.07.2014 23:58 20,3 C 18,9 C 98 % 1010,3 hPa 0,0 l/m 0 min 0 min 0,0 UV-I 0 W/m 0,0 km/h (0 Bft)
_ Min-Zeit 16:18 16:04 14:38 03:56 - - - - - 00:28
Minimum _ 19,9 C 17,8 C 63 % 1007,1 hPa - - - - - 0,0 km/h (0 Bft)
_ Max-Zeit 14:38 10:40 23:08 23:08 16:10 08:36 15:38 12:42 13:26 16:08
Maximum _ 29,7 C 31,1 C 98 % 1010,5 hPa 1,0 l/m 2 min 2 min 4,9 UV-I 892 W/m 62,8 km/h
W-NW (8 Bft)
Durchschnitt _ 23,3 C 22,2 C 84 % 1008,6 hPa #5,2 l/m #4:30 h #1:50 h 2,3 UV-I 240 W/m 4,1 km/h (1 Bft)
© 2014 W. Hausmann